THA1128 LOWW-VTBS
Flight info
| Callsign | THA1128 |
|---|---|
| Flight time | 9h 42m |
| Altitude | 35000 |
| Route | ADAMA DCT VEDER DCT ALAMU DCT BUDOP DCT IRLOX DCT OPT DCT LUGEB DCT UDROS DCT BAMUP DCT ROLIN N644 ODILI DCT BARAD/N0469F370 M747 SULEL N449 DUKAN B449 RANAH L750 MERUN G452 CHI/N0470F390 G452 LKN R460 BBN P646 JJS Z12 DOPID P646 PTN N895 BETNO G463 TARED DCT WILLA WILLA1C |
| Aircraft | A339/H-SADE1E2E3GHIJ3J5M1P2RWXY/LB2D1 |
Departure
| Time | 2026-04-26 03:42 |
|---|---|
| Airport | Vienna International Airport (LOWW) |
Arrival
| Time | 2026-04-26 13:24 |
|---|---|
| Airport | Suvarnabhumi Airport (VTBS) |
| Time | Latitude | Longitude | Altitude | Speed | Heading |
|---|---|---|---|---|---|
| 2026-04-26 02:52 | 48.11810 | 16.56517 | 602 ft | 0 kts | 4° |
| 2026-04-26 03:26 | 48.11795 | 16.56518 | 602 ft | 4 kts | 26° |
| 2026-04-26 03:26 | 48.11782 | 16.56502 | 602 ft | 4 kts | 31° |
| 2026-04-26 03:27 | 48.11767 | 16.56492 | 602 ft | 4 kts | 22° |
| 2026-04-26 03:27 | 48.11746 | 16.56478 | 603 ft | 4 kts | 58° |
| 2026-04-26 03:27 | 48.11736 | 16.56451 | 603 ft | 4 kts | 102° |
| 2026-04-26 03:27 | 48.11738 | 16.56433 | 603 ft | 0 kts | 117° |
| 2026-04-26 03:31 | 48.11731 | 16.56454 | 597 ft | 6 kts | 117° |
| 2026-04-26 03:32 | 48.11700 | 16.56546 | 615 ft | 14 kts | 116° |
| 2026-04-26 03:32 | 48.11649 | 16.56703 | 612 ft | 17 kts | 115° |
| 2026-04-26 03:32 | 48.11593 | 16.56870 | 619 ft | 16 kts | 123° |
| 2026-04-26 03:32 | 48.11513 | 16.56903 | 616 ft | 13 kts | 202° |
| 2026-04-26 03:33 | 48.11421 | 16.56830 | 619 ft | 16 kts | 199° |
| 2026-04-26 03:33 | 48.11350 | 16.56853 | 622 ft | 9 kts | 136° |
| 2026-04-26 03:33 | 48.11311 | 16.56966 | 620 ft | 16 kts | 115° |
| 2026-04-26 03:33 | 48.11249 | 16.57152 | 625 ft | 24 kts | 117° |
| 2026-04-26 03:34 | 48.11162 | 16.57412 | 622 ft | 30 kts | 115° |
| 2026-04-26 03:34 | 48.11088 | 16.57642 | 617 ft | 26 kts | 116° |
| 2026-04-26 03:34 | 48.10986 | 16.57820 | 616 ft | 25 kts | 158° |
| 2026-04-26 03:34 | 48.10795 | 16.57900 | 620 ft | 32 kts | 165° |
| 2026-04-26 03:35 | 48.10561 | 16.58000 | 620 ft | 39 kts | 164° |
| 2026-04-26 03:35 | 48.10279 | 16.58109 | 620 ft | 45 kts | 165° |
| 2026-04-26 03:35 | 48.10079 | 16.58203 | 621 ft | 23 kts | 164° |
| 2026-04-26 03:35 | 48.09895 | 16.58280 | 625 ft | 31 kts | 165° |
| 2026-04-26 03:36 | 48.09666 | 16.58379 | 620 ft | 38 kts | 164° |
| 2026-04-26 03:36 | 48.09387 | 16.58496 | 612 ft | 45 kts | 164° |
| 2026-04-26 03:36 | 48.09155 | 16.58593 | 603 ft | 32 kts | 164° |
| 2026-04-26 03:36 | 48.08942 | 16.58682 | 603 ft | 28 kts | 165° |
| 2026-04-26 03:37 | 48.08803 | 16.58824 | 603 ft | 17 kts | 116° |
| 2026-04-26 03:37 | 48.08796 | 16.58940 | 601 ft | 0 kts | 82° |
| 2026-04-26 03:39 | 48.08805 | 16.58982 | 601 ft | 9 kts | 69° |
| 2026-04-26 03:40 | 48.08860 | 16.59080 | 602 ft | 13 kts | 37° |
| 2026-04-26 03:40 | 48.08942 | 16.59098 | 602 ft | 13 kts | 351° |
| 2026-04-26 03:40 | 48.08978 | 16.59084 | 603 ft | 0 kts | 345° |
| 2026-04-26 03:41 | 48.09025 | 16.59064 | 603 ft | 30 kts | 344° |
| 2026-04-26 03:41 | 48.09458 | 16.58883 | 603 ft | 97 kts | 344° |
| 2026-04-26 03:41 | 48.10286 | 16.58536 | 604 ft | 147 kts | 345° |
| 2026-04-26 03:41 | 48.11329 | 16.58149 | 1053 ft | 149 kts | 343° |
| 2026-04-26 03:42 | 48.12352 | 16.57710 | 1617 ft | 154 kts | 342° |
| 2026-04-26 03:42 | 48.13335 | 16.57302 | 2424 ft | 145 kts | 342° |
| 2026-04-26 03:42 | 48.14373 | 16.57246 | 2883 ft | 158 kts | 0° |
| 2026-04-26 03:42 | 48.15503 | 16.57765 | 3080 ft | 184 kts | 22° |
| 2026-04-26 03:43 | 48.16184 | 16.58602 | 3069 ft | 201 kts | 40° |
| 2026-04-26 03:43 | 48.16775 | 16.60617 | 3060 ft | 225 kts | 74° |
| 2026-04-26 03:43 | 48.16744 | 16.63010 | 3026 ft | 233 kts | 89° |
| 2026-04-26 03:43 | 48.16556 | 16.65428 | 3021 ft | 233 kts | 90° |
| 2026-04-26 03:44 | 48.16382 | 16.67829 | 3026 ft | 232 kts | 88° |
| 2026-04-26 03:44 | 48.16259 | 16.70239 | 3086 ft | 233 kts | 86° |
| 2026-04-26 03:44 | 48.16109 | 16.72702 | 3285 ft | 250 kts | 96° |
| 2026-04-26 03:44 | 48.15516 | 16.75286 | 3507 ft | 274 kts | 109° |
| 2026-04-26 03:45 | 48.14691 | 16.77919 | 3871 ft | 282 kts | 112° |
| 2026-04-26 03:45 | 48.13852 | 16.80597 | 4262 ft | 287 kts | 111° |
| 2026-04-26 03:45 | 48.13041 | 16.83413 | 4495 ft | 301 kts | 109° |
| 2026-04-26 03:45 | 48.12253 | 16.86355 | 4956 ft | 307 kts | 109° |
| 2026-04-26 03:46 | 48.11182 | 16.89160 | 5498 ft | 312 kts | 127° |
| 2026-04-26 03:46 | 48.09740 | 16.91606 | 6026 ft | 315 kts | 138° |
| 2026-04-26 03:46 | 48.08103 | 16.93782 | 6545 ft | 317 kts | 141° |
| 2026-04-26 03:47 | 48.04820 | 16.98267 | 7641 ft | 321 kts | 139° |
| 2026-04-26 03:47 | 48.03210 | 17.00605 | 8168 ft | 324 kts | 134° |
| 2026-04-26 03:47 | 48.01871 | 17.03332 | 8713 ft | 326 kts | 118° |
| 2026-04-26 03:47 | 48.00979 | 17.06429 | 9274 ft | 326 kts | 104° |
| 2026-04-26 03:48 | 48.00553 | 17.09739 | 9774 ft | 325 kts | 91° |
| 2026-04-26 03:48 | 48.00352 | 17.13107 | 9951 ft | 326 kts | 91° |
| 2026-04-26 03:48 | 48.00133 | 17.16472 | 10023 ft | 327 kts | 91° |
| 2026-04-26 03:48 | 47.99888 | 17.19943 | 10168 ft | 344 kts | 92° |
| 2026-04-26 03:49 | 47.99618 | 17.23581 | 10329 ft | 360 kts | 92° |
| 2026-04-26 03:49 | 47.99328 | 17.27357 | 10552 ft | 372 kts | 93° |
| 2026-04-26 03:49 | 47.99024 | 17.31204 | 11047 ft | 374 kts | 93° |
| 2026-04-26 03:49 | 47.98602 | 17.35057 | 11548 ft | 379 kts | 101° |
| 2026-04-26 03:50 | 47.97836 | 17.38840 | 12064 ft | 382 kts | 107° |
| 2026-04-26 03:50 | 47.96966 | 17.42602 | 12553 ft | 385 kts | 107° |
| 2026-04-26 03:50 | 47.96106 | 17.46399 | 13064 ft | 387 kts | 106° |
| 2026-04-26 03:50 | 47.95265 | 17.50178 | 13553 ft | 389 kts | 106° |
| 2026-04-26 03:51 | 47.94420 | 17.54011 | 14019 ft | 392 kts | 106° |
| 2026-04-26 03:51 | 47.93567 | 17.57891 | 14459 ft | 394 kts | 106° |
| 2026-04-26 03:51 | 47.92707 | 17.61794 | 14880 ft | 397 kts | 106° |
| 2026-04-26 03:51 | 47.91842 | 17.65713 | 15306 ft | 400 kts | 106° |
| 2026-04-26 03:52 | 47.90968 | 17.69664 | 15735 ft | 402 kts | 106° |
| 2026-04-26 03:52 | 47.90089 | 17.73629 | 16170 ft | 405 kts | 106° |
| 2026-04-26 03:52 | 47.89201 | 17.77624 | 16602 ft | 407 kts | 106° |
| 2026-04-26 03:52 | 47.88306 | 17.81643 | 17026 ft | 410 kts | 106° |
| 2026-04-26 03:53 | 47.87405 | 17.85684 | 17437 ft | 412 kts | 106° |
| 2026-04-26 03:53 | 47.86498 | 17.89742 | 17862 ft | 415 kts | 106° |
| 2026-04-26 03:53 | 47.85582 | 17.93833 | 18289 ft | 417 kts | 106° |
| 2026-04-26 03:53 | 47.84645 | 17.97941 | 18646 ft | 421 kts | 108° |
| 2026-04-26 03:54 | 47.83484 | 18.01949 | 19022 ft | 424 kts | 114° |
| 2026-04-26 03:54 | 47.82213 | 18.05924 | 19389 ft | 426 kts | 114° |
| 2026-04-26 03:54 | 47.80945 | 18.09920 | 19759 ft | 429 kts | 114° |
| 2026-04-26 03:54 | 47.79678 | 18.13942 | 20143 ft | 431 kts | 113° |
| 2026-04-26 03:55 | 47.78406 | 18.17993 | 20514 ft | 433 kts | 113° |
| 2026-04-26 03:55 | 47.77128 | 18.22064 | 20895 ft | 436 kts | 113° |
| 2026-04-26 03:55 | 47.75844 | 18.26153 | 21276 ft | 438 kts | 113° |
| 2026-04-26 03:55 | 47.74549 | 18.30267 | 21661 ft | 441 kts | 113° |
| 2026-04-26 03:56 | 47.73246 | 18.34403 | 22036 ft | 443 kts | 113° |
| 2026-04-26 03:56 | 47.71941 | 18.38564 | 22429 ft | 446 kts | 113° |
| 2026-04-26 03:56 | 47.70633 | 18.42750 | 22821 ft | 448 kts | 113° |
| 2026-04-26 03:56 | 47.69334 | 18.46913 | 23209 ft | 451 kts | 113° |
| 2026-04-26 03:57 | 47.67993 | 18.51207 | 23594 ft | 453 kts | 113° |
| 2026-04-26 03:57 | 47.66682 | 18.55399 | 23938 ft | 455 kts | 113° |
| 2026-04-26 03:57 | 47.65344 | 18.59660 | 24282 ft | 457 kts | 113° |
| 2026-04-26 03:57 | 47.63997 | 18.63942 | 24619 ft | 459 kts | 113° |
| 2026-04-26 03:58 | 47.62645 | 18.68227 | 24961 ft | 460 kts | 113° |
| 2026-04-26 03:58 | 47.61285 | 18.72533 | 25295 ft | 462 kts | 113° |
| 2026-04-26 03:58 | 47.59915 | 18.76861 | 25623 ft | 464 kts | 113° |
| 2026-04-26 03:58 | 47.58539 | 18.81199 | 25963 ft | 466 kts | 113° |
| 2026-04-26 03:59 | 47.57157 | 18.85551 | 26273 ft | 468 kts | 113° |
| 2026-04-26 03:59 | 47.55770 | 18.89914 | 26591 ft | 470 kts | 113° |
| 2026-04-26 03:59 | 47.54365 | 18.94321 | 26888 ft | 473 kts | 113° |
| 2026-04-26 03:59 | 47.52960 | 18.98724 | 27216 ft | 474 kts | 113° |
| 2026-04-26 04:00 | 47.51543 | 19.03155 | 27511 ft | 477 kts | 113° |
| 2026-04-26 04:00 | 47.50121 | 19.07593 | 27847 ft | 478 kts | 113° |
| 2026-04-26 04:00 | 47.48695 | 19.12035 | 28132 ft | 480 kts | 113° |
| 2026-04-26 04:00 | 47.47261 | 19.16494 | 28437 ft | 482 kts | 113° |
| 2026-04-26 04:01 | 47.45816 | 19.20983 | 28723 ft | 484 kts | 113° |
| 2026-04-26 04:01 | 47.44364 | 19.25484 | 29011 ft | 486 kts | 113° |
| 2026-04-26 04:01 | 47.42925 | 19.29941 | 29276 ft | 488 kts | 113° |
| 2026-04-26 04:01 | 47.41460 | 19.34465 | 29560 ft | 490 kts | 113° |
| 2026-04-26 04:02 | 47.39984 | 19.39015 | 29849 ft | 491 kts | 113° |
| 2026-04-26 04:02 | 47.38506 | 19.43564 | 30120 ft | 493 kts | 113° |
| 2026-04-26 04:02 | 47.37018 | 19.48135 | 30409 ft | 494 kts | 113° |
| 2026-04-26 04:02 | 47.35507 | 19.52768 | 30664 ft | 496 kts | 113° |
| 2026-04-26 04:03 | 47.34006 | 19.57361 | 30935 ft | 497 kts | 113° |
| 2026-04-26 04:03 | 47.32521 | 19.61902 | 31195 ft | 499 kts | 113° |
| 2026-04-26 04:03 | 47.30991 | 19.66569 | 31455 ft | 500 kts | 113° |
| 2026-04-26 04:03 | 47.29491 | 19.71139 | 31693 ft | 502 kts | 113° |
| 2026-04-26 04:04 | 47.27946 | 19.75834 | 31959 ft | 503 kts | 113° |
| 2026-04-26 04:04 | 47.26419 | 19.80469 | 32205 ft | 505 kts | 113° |
| 2026-04-26 04:04 | 47.24881 | 19.85128 | 32428 ft | 506 kts | 113° |
| 2026-04-26 04:04 | 47.23337 | 19.89794 | 32622 ft | 507 kts | 114° |
| 2026-04-26 04:05 | 47.21792 | 19.94456 | 32815 ft | 508 kts | 114° |
| 2026-04-26 04:05 | 47.20241 | 19.99131 | 32981 ft | 510 kts | 114° |
| 2026-04-26 04:05 | 47.18683 | 20.03815 | 33116 ft | 510 kts | 114° |
| 2026-04-26 04:05 | 47.17118 | 20.08514 | 33276 ft | 511 kts | 114° |
| 2026-04-26 04:06 | 47.15553 | 20.13203 | 33391 ft | 512 kts | 114° |
| 2026-04-26 04:06 | 47.13983 | 20.17898 | 33580 ft | 512 kts | 114° |
| 2026-04-26 04:06 | 47.12411 | 20.22591 | 33754 ft | 511 kts | 114° |
| 2026-04-26 04:06 | 47.10844 | 20.27261 | 33936 ft | 510 kts | 114° |
| 2026-04-26 04:07 | 47.09273 | 20.31934 | 34094 ft | 510 kts | 114° |
| 2026-04-26 04:07 | 47.07704 | 20.36593 | 34243 ft | 509 kts | 114° |
| 2026-04-26 04:07 | 47.06135 | 20.41246 | 34371 ft | 509 kts | 114° |
| 2026-04-26 04:07 | 47.04562 | 20.45902 | 34516 ft | 509 kts | 115° |
| 2026-04-26 04:08 | 47.02987 | 20.50553 | 34642 ft | 509 kts | 115° |
| 2026-04-26 04:08 | 47.01413 | 20.55195 | 34785 ft | 508 kts | 115° |
| 2026-04-26 04:08 | 46.99840 | 20.59825 | 34917 ft | 508 kts | 115° |
| 2026-04-26 04:09 | 46.96689 | 20.69073 | 34944 ft | 507 kts | 115° |
| 2026-04-26 04:09 | 46.93559 | 20.78231 | 34942 ft | 506 kts | 115° |
| 2026-04-26 04:10 | 46.90401 | 20.87435 | 34944 ft | 506 kts | 116° |
| 2026-04-26 04:10 | 46.87237 | 20.96621 | 34943 ft | 506 kts | 116° |
| 2026-04-26 04:11 | 46.84042 | 21.05865 | 34944 ft | 506 kts | 116° |
| 2026-04-26 04:11 | 46.80861 | 21.15037 | 34947 ft | 507 kts | 116° |
| 2026-04-26 04:12 | 46.77666 | 21.24220 | 34947 ft | 507 kts | 116° |
| 2026-04-26 04:12 | 46.74463 | 21.33390 | 34947 ft | 507 kts | 116° |
| 2026-04-26 04:13 | 46.71274 | 21.42497 | 34948 ft | 508 kts | 116° |
| 2026-04-26 04:13 | 46.68010 | 21.51629 | 34954 ft | 508 kts | 119° |
| 2026-04-26 04:14 | 46.64611 | 21.60643 | 34955 ft | 509 kts | 117° |
| 2026-04-26 04:14 | 46.61244 | 21.69718 | 34956 ft | 509 kts | 117° |
| 2026-04-26 04:15 | 46.57857 | 21.78762 | 34961 ft | 509 kts | 118° |
| 2026-04-26 04:15 | 46.54453 | 21.87789 | 34968 ft | 510 kts | 118° |
| 2026-04-26 04:16 | 46.51036 | 21.96818 | 34975 ft | 510 kts | 118° |
| 2026-04-26 04:16 | 46.47612 | 22.05839 | 34976 ft | 510 kts | 118° |
| 2026-04-26 04:17 | 46.44183 | 22.14840 | 34984 ft | 510 kts | 118° |
| 2026-04-26 04:17 | 46.40771 | 22.23768 | 34989 ft | 509 kts | 118° |
| 2026-04-26 04:18 | 46.37331 | 22.32740 | 34993 ft | 509 kts | 118° |
| 2026-04-26 04:18 | 46.33882 | 22.41706 | 34995 ft | 509 kts | 118° |
| 2026-04-26 04:19 | 46.30427 | 22.50658 | 34990 ft | 510 kts | 118° |
| 2026-04-26 04:19 | 46.26965 | 22.59599 | 34989 ft | 510 kts | 118° |
| 2026-04-26 04:20 | 46.23496 | 22.68528 | 34994 ft | 510 kts | 118° |
| 2026-04-26 04:20 | 46.20013 | 22.77463 | 34997 ft | 510 kts | 118° |
| 2026-04-26 04:21 | 46.16522 | 22.86391 | 34997 ft | 510 kts | 119° |
| 2026-04-26 04:21 | 46.13025 | 22.95303 | 34989 ft | 511 kts | 119° |
| 2026-04-26 04:22 | 46.09516 | 23.04220 | 34990 ft | 512 kts | 119° |
| 2026-04-26 04:22 | 46.05992 | 23.13146 | 34987 ft | 512 kts | 119° |
| 2026-04-26 04:23 | 46.02466 | 23.22047 | 34988 ft | 513 kts | 119° |
| 2026-04-26 04:23 | 45.98921 | 23.30963 | 34983 ft | 513 kts | 119° |
| 2026-04-26 04:24 | 45.95372 | 23.39864 | 34982 ft | 513 kts | 119° |
| 2026-04-26 04:24 | 45.91809 | 23.48769 | 34980 ft | 514 kts | 119° |
| 2026-04-26 04:25 | 45.88845 | 23.56156 | 34984 ft | 514 kts | 120° |
| 2026-04-26 04:25 | 45.85270 | 23.65040 | 34978 ft | 514 kts | 120° |
| 2026-04-26 04:26 | 45.81105 | 23.75354 | 34970 ft | 514 kts | 120° |
| 2026-04-26 04:26 | 45.78100 | 23.82771 | 34958 ft | 514 kts | 120° |
| 2026-04-26 04:27 | 45.74533 | 23.91553 | 34945 ft | 513 kts | 120° |
| 2026-04-26 04:27 | 45.70910 | 24.00440 | 34947 ft | 513 kts | 120° |
| 2026-04-26 04:28 | 45.67332 | 24.09193 | 34947 ft | 513 kts | 120° |
| 2026-04-26 04:28 | 45.63709 | 24.18053 | 34954 ft | 515 kts | 121° |
| 2026-04-26 04:29 | 45.60038 | 24.26816 | 34953 ft | 518 kts | 122° |
| 2026-04-26 04:29 | 45.56275 | 24.35658 | 34966 ft | 517 kts | 122° |
| 2026-04-26 04:30 | 45.52573 | 24.44373 | 34969 ft | 516 kts | 122° |
| 2026-04-26 04:30 | 45.48853 | 24.53118 | 34970 ft | 517 kts | 122° |
| 2026-04-26 04:31 | 45.45219 | 24.61638 | 34972 ft | 511 kts | 122° |
| 2026-04-26 04:31 | 45.41502 | 24.70319 | 34965 ft | 519 kts | 122° |
| 2026-04-26 04:32 | 45.37742 | 24.79078 | 34961 ft | 519 kts | 122° |
| 2026-04-26 04:32 | 45.33963 | 24.87853 | 34962 ft | 520 kts | 123° |
| 2026-04-26 04:33 | 45.30182 | 24.96606 | 34962 ft | 519 kts | 123° |
| 2026-04-26 04:33 | 45.26400 | 25.05333 | 34960 ft | 519 kts | 123° |
| 2026-04-26 04:34 | 45.22605 | 25.14064 | 34962 ft | 520 kts | 123° |
| 2026-04-26 04:34 | 45.18800 | 25.22790 | 34958 ft | 519 kts | 123° |
| 2026-04-26 04:35 | 45.14995 | 25.31490 | 34956 ft | 519 kts | 123° |
| 2026-04-26 04:35 | 45.11188 | 25.40167 | 34948 ft | 519 kts | 123° |
| 2026-04-26 04:36 | 45.07374 | 25.48835 | 34943 ft | 518 kts | 123° |
| 2026-04-26 04:36 | 45.03557 | 25.57481 | 34940 ft | 518 kts | 123° |
| 2026-04-26 04:37 | 44.99737 | 25.66107 | 34932 ft | 517 kts | 123° |
| 2026-04-26 04:37 | 44.95945 | 25.74648 | 34927 ft | 517 kts | 123° |
| 2026-04-26 04:38 | 44.92123 | 25.83228 | 34922 ft | 516 kts | 123° |
| 2026-04-26 04:38 | 44.88295 | 25.91796 | 34917 ft | 516 kts | 123° |
| 2026-04-26 04:39 | 44.84468 | 26.00337 | 34921 ft | 515 kts | 123° |
| 2026-04-26 04:39 | 44.80630 | 26.08876 | 34923 ft | 515 kts | 123° |
| 2026-04-26 04:40 | 44.76792 | 26.17389 | 34922 ft | 515 kts | 123° |
| 2026-04-26 04:40 | 44.72943 | 26.25902 | 34925 ft | 515 kts | 123° |
| 2026-04-26 04:41 | 44.69095 | 26.34387 | 34926 ft | 515 kts | 123° |
| 2026-04-26 04:41 | 44.65242 | 26.42858 | 34918 ft | 514 kts | 123° |
| 2026-04-26 04:42 | 44.61382 | 26.51323 | 34911 ft | 514 kts | 123° |
| 2026-04-26 04:42 | 44.57544 | 26.59805 | 34918 ft | 514 kts | 122° |
| 2026-04-26 04:43 | 44.53889 | 26.68412 | 34919 ft | 513 kts | 121° |
| 2026-04-26 04:43 | 44.50237 | 26.77012 | 34922 ft | 513 kts | 121° |
| 2026-04-26 04:44 | 44.46563 | 26.85566 | 34905 ft | 513 kts | 122° |
| 2026-04-26 04:44 | 44.42875 | 26.94105 | 34896 ft | 512 kts | 122° |
| 2026-04-26 04:45 | 44.39188 | 27.02619 | 34916 ft | 511 kts | 122° |
| 2026-04-26 04:45 | 44.35500 | 27.11108 | 34912 ft | 510 kts | 122° |
| 2026-04-26 04:46 | 44.31841 | 27.19509 | 34919 ft | 509 kts | 122° |
| 2026-04-26 04:46 | 44.28149 | 27.27958 | 34919 ft | 509 kts | 122° |
| 2026-04-26 04:47 | 44.24463 | 27.36371 | 34916 ft | 508 kts | 122° |
| 2026-04-26 04:47 | 44.20771 | 27.44770 | 34920 ft | 508 kts | 122° |
| 2026-04-26 04:48 | 44.15226 | 27.57343 | 34922 ft | 508 kts | 122° |
| 2026-04-26 04:48 | 44.11520 | 27.65713 | 34925 ft | 507 kts | 122° |
| 2026-04-26 04:49 | 44.07813 | 27.74064 | 34930 ft | 507 kts | 122° |
| 2026-04-26 04:49 | 44.04096 | 27.82411 | 34927 ft | 507 kts | 122° |
| 2026-04-26 04:50 | 44.00386 | 27.90718 | 34924 ft | 506 kts | 122° |
| 2026-04-26 04:50 | 43.96663 | 27.99031 | 34933 ft | 506 kts | 122° |
| 2026-04-26 04:51 | 43.92944 | 28.07313 | 34930 ft | 505 kts | 122° |
| 2026-04-26 04:51 | 43.89223 | 28.15573 | 34934 ft | 505 kts | 122° |
| 2026-04-26 04:52 | 43.85498 | 28.23820 | 34938 ft | 504 kts | 122° |
| 2026-04-26 04:52 | 43.81800 | 28.31984 | 34938 ft | 503 kts | 122° |
| 2026-04-26 04:53 | 43.78073 | 28.40189 | 34945 ft | 503 kts | 122° |
| 2026-04-26 04:53 | 43.74346 | 28.48373 | 34947 ft | 502 kts | 122° |
| 2026-04-26 04:54 | 43.70610 | 28.56527 | 34952 ft | 502 kts | 123° |
| 2026-04-26 04:54 | 43.66858 | 28.64659 | 34957 ft | 502 kts | 122° |
| 2026-04-26 04:55 | 43.63107 | 28.72779 | 34961 ft | 501 kts | 122° |
| 2026-04-26 04:55 | 43.59353 | 28.80884 | 34962 ft | 501 kts | 123° |
| 2026-04-26 04:56 | 43.55597 | 28.88972 | 34961 ft | 501 kts | 123° |
| 2026-04-26 04:56 | 43.51835 | 28.97048 | 34967 ft | 500 kts | 123° |
| 2026-04-26 04:57 | 43.48072 | 29.05105 | 34969 ft | 500 kts | 123° |
| 2026-04-26 04:57 | 43.44311 | 29.13136 | 34971 ft | 499 kts | 123° |
| 2026-04-26 04:58 | 43.40568 | 29.21106 | 34975 ft | 499 kts | 123° |
| 2026-04-26 04:58 | 43.36776 | 29.29158 | 34976 ft | 498 kts | 123° |
| 2026-04-26 04:59 | 43.33030 | 29.37092 | 34978 ft | 498 kts | 123° |
| 2026-04-26 04:59 | 43.29261 | 29.45053 | 34977 ft | 497 kts | 123° |
| 2026-04-26 05:00 | 43.25484 | 29.53010 | 34978 ft | 497 kts | 123° |
| 2026-04-26 05:00 | 43.21713 | 29.60930 | 34980 ft | 496 kts | 123° |
| 2026-04-26 05:01 | 43.17935 | 29.68847 | 34979 ft | 496 kts | 123° |
| 2026-04-26 05:01 | 43.14159 | 29.76738 | 34984 ft | 495 kts | 123° |
| 2026-04-26 05:02 | 43.10375 | 29.84622 | 34986 ft | 495 kts | 123° |
| 2026-04-26 05:02 | 43.06589 | 29.92491 | 34980 ft | 495 kts | 123° |
| 2026-04-26 05:03 | 43.02803 | 30.00340 | 34984 ft | 494 kts | 123° |
| 2026-04-26 05:03 | 42.99010 | 30.08182 | 34981 ft | 494 kts | 123° |
| 2026-04-26 05:04 | 42.95209 | 30.16018 | 34985 ft | 494 kts | 123° |
| 2026-04-26 05:04 | 42.91415 | 30.23821 | 34985 ft | 493 kts | 123° |
| 2026-04-26 05:05 | 42.87642 | 30.31561 | 34990 ft | 493 kts | 123° |
| 2026-04-26 05:05 | 42.83845 | 30.39329 | 34989 ft | 492 kts | 123° |
| 2026-04-26 05:06 | 42.80042 | 30.47090 | 34987 ft | 492 kts | 123° |
| 2026-04-26 05:06 | 42.76276 | 30.54861 | 34987 ft | 491 kts | 119° |
| 2026-04-26 05:07 | 42.73664 | 30.63375 | 34986 ft | 488 kts | 103° |
| 2026-04-26 05:07 | 42.72574 | 30.72455 | 34983 ft | 486 kts | 96° |
| 2026-04-26 05:08 | 42.71676 | 30.81568 | 34987 ft | 486 kts | 96° |
| 2026-04-26 05:08 | 42.70744 | 30.90678 | 34984 ft | 486 kts | 96° |
| 2026-04-26 05:09 | 42.69804 | 30.99768 | 34989 ft | 486 kts | 96° |
| 2026-04-26 05:09 | 42.68856 | 31.08867 | 34990 ft | 486 kts | 96° |
| 2026-04-26 05:10 | 42.67902 | 31.17955 | 34989 ft | 486 kts | 97° |
| 2026-04-26 05:10 | 42.66947 | 31.26984 | 34987 ft | 485 kts | 97° |
| 2026-04-26 05:11 | 42.65981 | 31.36054 | 34991 ft | 485 kts | 97° |
| 2026-04-26 05:11 | 42.65006 | 31.45129 | 34989 ft | 485 kts | 97° |
| 2026-04-26 05:12 | 42.64025 | 31.54194 | 34992 ft | 485 kts | 97° |
| 2026-04-26 05:12 | 42.63036 | 31.63259 | 34991 ft | 485 kts | 97° |
| 2026-04-26 05:13 | 42.62210 | 31.70787 | 34993 ft | 485 kts | 97° |
| 2026-04-26 05:13 | 42.61208 | 31.79846 | 34991 ft | 485 kts | 97° |
| 2026-04-26 05:14 | 42.60200 | 31.88899 | 34990 ft | 484 kts | 97° |
| 2026-04-26 05:14 | 42.59186 | 31.97938 | 34991 ft | 484 kts | 97° |
| 2026-04-26 05:15 | 42.58442 | 32.06999 | 34983 ft | 483 kts | 93° |
| 2026-04-26 05:15 | 42.57959 | 32.16095 | 34987 ft | 483 kts | 93° |
| 2026-04-26 05:16 | 42.57471 | 32.25190 | 34989 ft | 483 kts | 93° |
| 2026-04-26 05:16 | 42.56979 | 32.34221 | 34991 ft | 483 kts | 93° |
| 2026-04-26 05:17 | 42.56476 | 32.43310 | 34990 ft | 483 kts | 93° |
| 2026-04-26 05:17 | 42.55965 | 32.52400 | 34990 ft | 483 kts | 93° |
| 2026-04-26 05:18 | 42.55444 | 32.61481 | 34989 ft | 483 kts | 93° |
| 2026-04-26 05:18 | 42.54914 | 32.70555 | 34989 ft | 483 kts | 94° |
| 2026-04-26 05:19 | 42.54375 | 32.79646 | 34989 ft | 483 kts | 94° |
| 2026-04-26 05:19 | 42.53830 | 32.88710 | 34988 ft | 483 kts | 94° |
| 2026-04-26 05:20 | 42.53278 | 32.97778 | 34989 ft | 483 kts | 94° |
| 2026-04-26 05:20 | 42.52722 | 33.06793 | 34988 ft | 483 kts | 94° |
| 2026-04-26 05:21 | 42.52155 | 33.15854 | 34982 ft | 483 kts | 94° |
| 2026-04-26 05:21 | 42.51582 | 33.24920 | 34982 ft | 483 kts | 94° |
| 2026-04-26 05:22 | 42.51000 | 33.33994 | 34979 ft | 483 kts | 94° |
| 2026-04-26 05:22 | 42.50411 | 33.43067 | 34981 ft | 483 kts | 94° |
| 2026-04-26 05:23 | 42.49815 | 33.52145 | 34980 ft | 484 kts | 94° |
| 2026-04-26 05:23 | 42.49212 | 33.61211 | 34976 ft | 484 kts | 95° |
| 2026-04-26 05:24 | 42.48601 | 33.70289 | 34978 ft | 484 kts | 95° |
| 2026-04-26 05:24 | 42.47982 | 33.79371 | 34979 ft | 484 kts | 95° |
| 2026-04-26 05:25 | 42.47356 | 33.88457 | 34977 ft | 484 kts | 95° |
| 2026-04-26 05:25 | 42.46723 | 33.97549 | 34978 ft | 485 kts | 95° |
| 2026-04-26 05:26 | 42.46082 | 34.06635 | 34978 ft | 485 kts | 95° |
| 2026-04-26 05:26 | 42.45434 | 34.15725 | 34979 ft | 485 kts | 95° |
| 2026-04-26 05:27 | 42.44779 | 34.24808 | 34975 ft | 485 kts | 95° |
| 2026-04-26 05:27 | 42.44116 | 34.33893 | 34980 ft | 485 kts | 95° |
| 2026-04-26 05:28 | 42.43447 | 34.42981 | 34979 ft | 485 kts | 95° |
| 2026-04-26 05:28 | 42.42769 | 34.52067 | 34975 ft | 485 kts | 96° |
| 2026-04-26 05:29 | 42.42086 | 34.61141 | 34977 ft | 485 kts | 96° |
| 2026-04-26 05:29 | 42.41394 | 34.70222 | 34975 ft | 485 kts | 96° |
| 2026-04-26 05:30 | 42.40701 | 34.79240 | 34974 ft | 485 kts | 96° |
| 2026-04-26 05:30 | 42.39996 | 34.88306 | 34978 ft | 485 kts | 96° |
| 2026-04-26 05:31 | 42.39283 | 34.97375 | 34978 ft | 485 kts | 96° |
| 2026-04-26 05:31 | 42.38564 | 35.06440 | 34982 ft | 484 kts | 96° |
| 2026-04-26 05:32 | 42.37838 | 35.15496 | 34980 ft | 484 kts | 96° |
| 2026-04-26 05:32 | 42.37104 | 35.24560 | 34981 ft | 484 kts | 96° |
| 2026-04-26 05:33 | 42.36363 | 35.33618 | 34980 ft | 484 kts | 96° |
| 2026-04-26 05:33 | 42.35620 | 35.42620 | 34982 ft | 484 kts | 96° |
| 2026-04-26 05:34 | 42.34865 | 35.51670 | 34975 ft | 484 kts | 96° |
| 2026-04-26 05:34 | 42.34104 | 35.60715 | 34978 ft | 484 kts | 97° |
| 2026-04-26 05:35 | 42.33334 | 35.69771 | 34975 ft | 485 kts | 97° |
| 2026-04-26 05:35 | 42.32558 | 35.78817 | 34980 ft | 485 kts | 97° |
| 2026-04-26 05:36 | 42.31775 | 35.87855 | 34980 ft | 485 kts | 97° |
| 2026-04-26 05:36 | 42.30983 | 35.96912 | 34977 ft | 485 kts | 97° |
| 2026-04-26 05:37 | 42.30184 | 36.05969 | 34980 ft | 485 kts | 97° |
| 2026-04-26 05:37 | 42.29378 | 36.15013 | 34983 ft | 486 kts | 97° |
| 2026-04-26 05:38 | 42.28564 | 36.24075 | 34980 ft | 486 kts | 97° |
| 2026-04-26 05:38 | 42.27743 | 36.33129 | 34986 ft | 486 kts | 97° |
| 2026-04-26 05:39 | 42.26915 | 36.42186 | 34984 ft | 486 kts | 97° |
| 2026-04-26 05:39 | 42.26080 | 36.51236 | 34988 ft | 486 kts | 97° |
| 2026-04-26 05:40 | 42.25237 | 36.60294 | 34988 ft | 487 kts | 97° |
| 2026-04-26 05:40 | 42.24386 | 36.69361 | 34988 ft | 487 kts | 97° |
| 2026-04-26 05:41 | 42.23533 | 36.78368 | 34989 ft | 487 kts | 98° |
| 2026-04-26 05:41 | 42.22666 | 36.87440 | 34992 ft | 488 kts | 98° |
| 2026-04-26 05:42 | 42.21793 | 36.96506 | 34996 ft | 488 kts | 98° |
| 2026-04-26 05:42 | 42.20911 | 37.05581 | 34994 ft | 488 kts | 98° |
| 2026-04-26 05:43 | 42.20021 | 37.14664 | 34998 ft | 488 kts | 98° |
| 2026-04-26 05:43 | 42.19125 | 37.23738 | 34998 ft | 489 kts | 98° |
| 2026-04-26 05:44 | 42.18220 | 37.32823 | 35001 ft | 489 kts | 98° |
| 2026-04-26 05:44 | 42.17314 | 37.41844 | 34998 ft | 489 kts | 98° |
| 2026-04-26 05:45 | 42.16395 | 37.50930 | 35002 ft | 489 kts | 98° |
| 2026-04-26 05:45 | 42.15468 | 37.60015 | 35004 ft | 489 kts | 98° |
| 2026-04-26 05:46 | 42.14532 | 37.69109 | 35002 ft | 490 kts | 98° |
| 2026-04-26 05:46 | 42.13590 | 37.78202 | 35006 ft | 490 kts | 99° |
| 2026-04-26 05:47 | 42.12640 | 37.87291 | 35004 ft | 490 kts | 99° |
| 2026-04-26 05:47 | 42.11682 | 37.96381 | 35004 ft | 490 kts | 99° |
| 2026-04-26 05:48 | 42.10717 | 38.05474 | 35004 ft | 491 kts | 99° |
| 2026-04-26 05:48 | 42.09744 | 38.14574 | 35006 ft | 491 kts | 99° |
| 2026-04-26 05:49 | 42.08277 | 38.28156 | 35010 ft | 491 kts | 99° |
| 2026-04-26 05:50 | 42.07285 | 38.37259 | 35010 ft | 492 kts | 99° |
| 2026-04-26 05:50 | 42.06285 | 38.46362 | 35004 ft | 492 kts | 99° |
| 2026-04-26 05:51 | 42.05277 | 38.55466 | 35004 ft | 492 kts | 99° |
| 2026-04-26 05:51 | 42.04260 | 38.64588 | 35005 ft | 492 kts | 100° |
| 2026-04-26 05:52 | 42.03237 | 38.73695 | 35009 ft | 493 kts | 100° |
| 2026-04-26 05:52 | 42.02204 | 38.82823 | 35009 ft | 493 kts | 100° |
| 2026-04-26 05:53 | 42.01165 | 38.91946 | 35010 ft | 494 kts | 100° |
| 2026-04-26 05:53 | 42.00124 | 39.01008 | 35008 ft | 494 kts | 100° |
| 2026-04-26 05:54 | 41.99069 | 39.10136 | 35008 ft | 494 kts | 100° |
| 2026-04-26 05:54 | 41.98005 | 39.19268 | 35009 ft | 495 kts | 100° |
| 2026-04-26 05:55 | 41.96934 | 39.28404 | 35009 ft | 495 kts | 101° |
| 2026-04-26 05:55 | 41.95854 | 39.37542 | 35010 ft | 496 kts | 101° |
| 2026-04-26 05:56 | 41.94766 | 39.46691 | 35008 ft | 496 kts | 101° |
| 2026-04-26 05:56 | 41.93669 | 39.55841 | 35012 ft | 497 kts | 101° |
| 2026-04-26 05:57 | 41.92562 | 39.65020 | 35012 ft | 497 kts | 101° |
| 2026-04-26 05:57 | 41.91448 | 39.74189 | 35010 ft | 498 kts | 101° |
| 2026-04-26 05:58 | 41.90327 | 39.83357 | 35014 ft | 498 kts | 101° |
| 2026-04-26 05:58 | 41.89203 | 39.92485 | 35012 ft | 499 kts | 101° |
| 2026-04-26 05:59 | 41.88064 | 40.01674 | 35012 ft | 499 kts | 101° |
| 2026-04-26 05:59 | 41.86917 | 40.10859 | 35012 ft | 499 kts | 101° |
| 2026-04-26 06:00 | 41.85762 | 40.20053 | 35012 ft | 500 kts | 101° |
| 2026-04-26 06:00 | 41.84600 | 40.29241 | 35013 ft | 500 kts | 101° |
| 2026-04-26 06:01 | 41.83433 | 40.38440 | 35012 ft | 500 kts | 101° |
| 2026-04-26 06:01 | 41.82269 | 40.47574 | 35009 ft | 501 kts | 102° |
| 2026-04-26 06:02 | 41.81089 | 40.56775 | 35015 ft | 500 kts | 102° |
| 2026-04-26 06:02 | 41.79903 | 40.65968 | 35009 ft | 500 kts | 102° |
| 2026-04-26 06:03 | 41.79251 | 40.75275 | 35010 ft | 503 kts | 94° |
| 2026-04-26 06:03 | 41.78945 | 40.84633 | 35006 ft | 503 kts | 94° |
| 2026-04-26 06:04 | 41.78530 | 40.93991 | 35002 ft | 503 kts | 95° |
| 2026-04-26 06:04 | 41.78140 | 41.01769 | 34998 ft | 504 kts | 95° |
| 2026-04-26 06:05 | 41.77657 | 41.11125 | 34996 ft | 504 kts | 95° |
| 2026-04-26 06:05 | 41.77167 | 41.20492 | 35000 ft | 504 kts | 95° |
| 2026-04-26 06:06 | 41.76670 | 41.29867 | 34994 ft | 504 kts | 95° |
| 2026-04-26 06:06 | 41.76166 | 41.39236 | 34990 ft | 504 kts | 96° |
| 2026-04-26 06:07 | 41.75654 | 41.48614 | 34992 ft | 505 kts | 96° |
| 2026-04-26 06:07 | 41.75134 | 41.57981 | 34992 ft | 505 kts | 96° |
| 2026-04-26 06:08 | 41.74606 | 41.67364 | 34994 ft | 505 kts | 96° |
| 2026-04-26 06:08 | 41.74070 | 41.76741 | 34994 ft | 505 kts | 96° |
| 2026-04-26 06:09 | 41.73528 | 41.86119 | 34994 ft | 505 kts | 96° |
| 2026-04-26 06:09 | 41.72976 | 41.95445 | 35004 ft | 506 kts | 96° |
| 2026-04-26 06:10 | 41.72418 | 42.04845 | 35007 ft | 507 kts | 96° |
| 2026-04-26 06:10 | 41.71624 | 42.14193 | 35017 ft | 505 kts | 101° |
| 2026-04-26 06:11 | 41.70600 | 42.23515 | 35033 ft | 506 kts | 100° |
| 2026-04-26 06:11 | 41.69593 | 42.32827 | 35051 ft | 506 kts | 100° |
| 2026-04-26 06:12 | 41.68570 | 42.42128 | 35057 ft | 506 kts | 100° |
| 2026-04-26 06:12 | 41.67536 | 42.51444 | 35068 ft | 506 kts | 101° |
| 2026-04-26 06:13 | 41.66493 | 42.60751 | 35076 ft | 506 kts | 101° |
| 2026-04-26 06:13 | 41.65441 | 42.70061 | 35084 ft | 506 kts | 101° |
| 2026-04-26 06:14 | 41.64389 | 42.79315 | 35092 ft | 507 kts | 101° |
| 2026-04-26 06:14 | 41.63323 | 42.88630 | 35103 ft | 507 kts | 101° |
| 2026-04-26 06:15 | 41.62246 | 42.97955 | 35100 ft | 508 kts | 101° |
| 2026-04-26 06:15 | 41.61163 | 43.07275 | 35112 ft | 508 kts | 101° |
| 2026-04-26 06:16 | 41.60071 | 43.16608 | 35120 ft | 508 kts | 101° |
| 2026-04-26 06:16 | 41.58969 | 43.25944 | 35110 ft | 509 kts | 101° |
| 2026-04-26 06:17 | 41.57860 | 43.35285 | 35109 ft | 509 kts | 101° |
| 2026-04-26 06:17 | 41.56742 | 43.44633 | 35120 ft | 509 kts | 101° |
| 2026-04-26 06:18 | 41.55626 | 43.53903 | 35126 ft | 509 kts | 101° |
| 2026-04-26 06:18 | 41.54492 | 43.63241 | 35135 ft | 510 kts | 101° |
| 2026-04-26 06:19 | 41.53352 | 43.72581 | 35141 ft | 510 kts | 101° |
| 2026-04-26 06:19 | 41.52202 | 43.81924 | 35156 ft | 510 kts | 101° |
| 2026-04-26 06:20 | 41.51044 | 43.91272 | 35170 ft | 510 kts | 101° |
| 2026-04-26 06:20 | 41.49881 | 44.00595 | 35187 ft | 510 kts | 102° |
| 2026-04-26 06:21 | 41.48707 | 44.09939 | 35196 ft | 510 kts | 102° |
| 2026-04-26 06:21 | 41.47527 | 44.19272 | 35212 ft | 511 kts | 102° |
| 2026-04-26 06:22 | 41.46337 | 44.28623 | 35224 ft | 512 kts | 101° |
| 2026-04-26 06:22 | 41.45141 | 44.37976 | 35235 ft | 512 kts | 102° |
| 2026-04-26 06:23 | 41.43930 | 44.47339 | 35246 ft | 512 kts | 102° |
| 2026-04-26 06:23 | 41.42715 | 44.56693 | 35254 ft | 513 kts | 102° |
| 2026-04-26 06:24 | 41.41490 | 44.66058 | 35260 ft | 514 kts | 102° |
| 2026-04-26 06:24 | 41.40256 | 44.75434 | 35268 ft | 514 kts | 102° |
| 2026-04-26 06:25 | 41.39020 | 44.84764 | 35270 ft | 515 kts | 102° |
| 2026-04-26 06:25 | 41.37768 | 44.94157 | 35275 ft | 516 kts | 102° |
| 2026-04-26 06:26 | 41.36506 | 45.03576 | 35275 ft | 516 kts | 102° |
| 2026-04-26 06:26 | 41.34749 | 45.12803 | 35274 ft | 513 kts | 112° |
| 2026-04-26 06:27 | 41.32408 | 45.21770 | 35269 ft | 514 kts | 111° |
| 2026-04-26 06:27 | 41.30098 | 45.30777 | 35273 ft | 515 kts | 111° |
| 2026-04-26 06:28 | 41.27795 | 45.39723 | 35273 ft | 515 kts | 112° |
| 2026-04-26 06:28 | 41.25459 | 45.48744 | 35277 ft | 516 kts | 112° |
| 2026-04-26 06:29 | 41.23114 | 45.57764 | 35283 ft | 517 kts | 112° |
| 2026-04-26 06:29 | 41.20759 | 45.66792 | 35288 ft | 517 kts | 112° |
| 2026-04-26 06:30 | 41.18390 | 45.75804 | 35288 ft | 518 kts | 112° |
| 2026-04-26 06:30 | 41.16008 | 45.84827 | 35293 ft | 518 kts | 112° |
| 2026-04-26 06:31 | 41.13621 | 45.93838 | 35290 ft | 518 kts | 112° |
| 2026-04-26 06:31 | 41.11221 | 46.02864 | 35292 ft | 518 kts | 112° |
| 2026-04-26 06:32 | 41.08819 | 46.11867 | 35297 ft | 519 kts | 112° |
| 2026-04-26 06:32 | 41.06405 | 46.20882 | 35291 ft | 519 kts | 113° |
| 2026-04-26 06:33 | 41.03985 | 46.29888 | 35307 ft | 519 kts | 113° |
| 2026-04-26 06:33 | 41.01574 | 46.38908 | 35307 ft | 520 kts | 112° |
| 2026-04-26 06:34 | 40.99175 | 46.47891 | 35291 ft | 520 kts | 113° |
| 2026-04-26 06:34 | 40.96752 | 46.56919 | 35291 ft | 520 kts | 113° |
| 2026-04-26 06:35 | 40.94316 | 46.65952 | 35296 ft | 521 kts | 113° |
| 2026-04-26 06:35 | 40.91875 | 46.74970 | 35300 ft | 521 kts | 113° |
| 2026-04-26 06:36 | 40.89428 | 46.83982 | 35299 ft | 521 kts | 113° |
| 2026-04-26 06:36 | 40.86966 | 46.92976 | 35297 ft | 521 kts | 113° |
| 2026-04-26 06:37 | 40.84495 | 47.01969 | 35294 ft | 521 kts | 114° |
| 2026-04-26 06:37 | 40.82036 | 47.10888 | 35297 ft | 520 kts | 114° |
| 2026-04-26 06:38 | 40.79550 | 47.19862 | 35296 ft | 520 kts | 114° |
| 2026-04-26 06:38 | 40.77048 | 47.28805 | 35297 ft | 519 kts | 114° |
| 2026-04-26 06:39 | 40.74540 | 47.37739 | 35296 ft | 519 kts | 114° |
| 2026-04-26 06:39 | 40.72037 | 47.46650 | 35289 ft | 518 kts | 114° |
| 2026-04-26 06:40 | 40.69534 | 47.55555 | 35283 ft | 517 kts | 114° |
| 2026-04-26 06:40 | 40.67030 | 47.64429 | 35278 ft | 517 kts | 114° |
| 2026-04-26 06:41 | 40.64518 | 47.73294 | 35276 ft | 516 kts | 114° |
| 2026-04-26 06:41 | 40.62005 | 47.82135 | 35271 ft | 516 kts | 114° |
| 2026-04-26 06:42 | 40.59486 | 47.90965 | 35270 ft | 515 kts | 114° |
| 2026-04-26 06:42 | 40.57031 | 47.99837 | 35270 ft | 516 kts | 111° |
| 2026-04-26 06:43 | 40.54883 | 48.08842 | 35266 ft | 516 kts | 111° |
| 2026-04-26 06:43 | 40.52718 | 48.17832 | 35267 ft | 515 kts | 111° |
| 2026-04-26 06:44 | 40.50516 | 48.26796 | 35258 ft | 515 kts | 111° |
| 2026-04-26 06:44 | 40.48302 | 48.35745 | 35259 ft | 515 kts | 112° |
| 2026-04-26 06:45 | 40.46097 | 48.44621 | 35253 ft | 514 kts | 112° |
| 2026-04-26 06:45 | 40.43873 | 48.53544 | 35254 ft | 515 kts | 112° |
| 2026-04-26 06:46 | 40.41638 | 48.62475 | 35249 ft | 515 kts | 112° |
| 2026-04-26 06:46 | 40.39392 | 48.71415 | 35253 ft | 516 kts | 112° |
| 2026-04-26 06:47 | 40.37142 | 48.80342 | 35245 ft | 516 kts | 112° |
| 2026-04-26 06:47 | 40.34881 | 48.89270 | 35246 ft | 516 kts | 112° |
| 2026-04-26 06:48 | 40.32614 | 48.98199 | 35239 ft | 516 kts | 112° |
| 2026-04-26 06:48 | 40.30339 | 49.07123 | 35249 ft | 516 kts | 112° |
| 2026-04-26 06:49 | 40.28059 | 49.15943 | 35250 ft | 516 kts | 112° |
| 2026-04-26 06:49 | 40.25726 | 49.24918 | 35251 ft | 515 kts | 112° |
| 2026-04-26 06:50 | 40.23432 | 49.33788 | 35249 ft | 515 kts | 112° |
| 2026-04-26 06:50 | 40.21135 | 49.42651 | 35250 ft | 514 kts | 112° |
| 2026-04-26 06:51 | 40.19011 | 49.51577 | 35249 ft | 516 kts | 105° |
| 2026-04-26 06:51 | 40.17609 | 49.65500 | 35244 ft | 517 kts | 99° |
| 2026-04-26 06:52 | 40.16754 | 49.74839 | 35243 ft | 517 kts | 99° |
| 2026-04-26 06:52 | 40.15885 | 49.84161 | 35240 ft | 517 kts | 99° |
| 2026-04-26 06:53 | 40.15008 | 49.93483 | 35234 ft | 517 kts | 99° |
| 2026-04-26 06:53 | 40.14124 | 50.02817 | 35232 ft | 517 kts | 99° |
| 2026-04-26 06:54 | 40.13233 | 50.12135 | 35240 ft | 517 kts | 99° |
| 2026-04-26 06:54 | 40.12335 | 50.21451 | 35235 ft | 517 kts | 99° |
| 2026-04-26 06:55 | 40.11583 | 50.29192 | 35237 ft | 516 kts | 99° |
| 2026-04-26 06:55 | 40.10671 | 50.38503 | 35241 ft | 516 kts | 99° |
| 2026-04-26 06:56 | 40.09604 | 50.49307 | 35245 ft | 516 kts | 99° |
| 2026-04-26 06:56 | 40.08827 | 50.57103 | 35247 ft | 516 kts | 99° |
| 2026-04-26 06:57 | 40.07893 | 50.66405 | 35240 ft | 516 kts | 99° |
| 2026-04-26 06:57 | 40.06959 | 50.75631 | 35241 ft | 516 kts | 99° |
| 2026-04-26 06:58 | 40.06010 | 50.84934 | 35247 ft | 516 kts | 99° |
| 2026-04-26 06:58 | 40.05055 | 50.94218 | 35247 ft | 516 kts | 99° |
| 2026-04-26 06:59 | 40.04090 | 51.03518 | 35248 ft | 517 kts | 99° |
| 2026-04-26 06:59 | 40.03120 | 51.12804 | 35254 ft | 517 kts | 99° |
| 2026-04-26 07:00 | 40.02141 | 51.22090 | 35252 ft | 517 kts | 99° |
| 2026-04-26 07:00 | 40.01156 | 51.31371 | 35250 ft | 516 kts | 100° |
| 2026-04-26 07:01 | 40.00162 | 51.40651 | 35253 ft | 516 kts | 100° |
| 2026-04-26 07:01 | 39.99133 | 51.49856 | 35250 ft | 516 kts | 103° |
| 2026-04-26 07:02 | 39.97470 | 51.58929 | 35252 ft | 514 kts | 106° |
| 2026-04-26 07:02 | 39.95780 | 51.67987 | 35248 ft | 514 kts | 106° |
| 2026-04-26 07:03 | 39.94088 | 51.77034 | 35248 ft | 514 kts | 106° |
| 2026-04-26 07:03 | 39.92385 | 51.86071 | 35244 ft | 513 kts | 106° |
| 2026-04-26 07:04 | 39.90675 | 51.95092 | 35248 ft | 513 kts | 106° |
| 2026-04-26 07:04 | 39.88958 | 52.04112 | 35242 ft | 513 kts | 106° |
| 2026-04-26 07:05 | 39.87235 | 52.13124 | 35250 ft | 513 kts | 107° |
| 2026-04-26 07:05 | 39.85504 | 52.22134 | 35250 ft | 513 kts | 107° |
| 2026-04-26 07:06 | 39.83778 | 52.31083 | 35252 ft | 513 kts | 107° |
| 2026-04-26 07:06 | 39.82033 | 52.40085 | 35239 ft | 513 kts | 107° |
| 2026-04-26 07:07 | 39.80279 | 52.49091 | 35239 ft | 514 kts | 107° |
| 2026-04-26 07:07 | 39.78519 | 52.58090 | 35236 ft | 514 kts | 107° |
| 2026-04-26 07:08 | 39.76752 | 52.67089 | 35234 ft | 514 kts | 107° |
| 2026-04-26 07:08 | 39.74974 | 52.76098 | 35232 ft | 514 kts | 107° |
| 2026-04-26 07:09 | 39.73193 | 52.85094 | 35222 ft | 515 kts | 107° |
| 2026-04-26 07:09 | 39.71439 | 52.94112 | 35238 ft | 515 kts | 106° |
| 2026-04-26 07:11 | 39.67045 | 53.16642 | 35230 ft | 515 kts | 107° |
| 2026-04-26 07:11 | 39.65272 | 53.25641 | 35235 ft | 515 kts | 107° |
| 2026-04-26 07:12 | 39.63490 | 53.34644 | 35230 ft | 515 kts | 107° |
| 2026-04-26 07:12 | 39.61704 | 53.43631 | 35231 ft | 515 kts | 107° |
| 2026-04-26 07:13 | 39.59920 | 53.52569 | 35232 ft | 515 kts | 107° |
| 2026-04-26 07:13 | 39.58117 | 53.61557 | 35227 ft | 515 kts | 107° |
| 2026-04-26 07:14 | 39.56307 | 53.70544 | 35231 ft | 515 kts | 107° |
| 2026-04-26 07:14 | 39.54490 | 53.79530 | 35229 ft | 515 kts | 107° |
| 2026-04-26 07:15 | 39.52667 | 53.88503 | 35230 ft | 515 kts | 107° |
| 2026-04-26 07:15 | 39.50835 | 53.97486 | 35231 ft | 515 kts | 107° |
| 2026-04-26 07:16 | 39.49000 | 54.06422 | 35231 ft | 515 kts | 107° |
| 2026-04-26 07:16 | 39.47126 | 54.15392 | 35230 ft | 515 kts | 107° |
| 2026-04-26 07:17 | 39.45249 | 54.24342 | 35238 ft | 515 kts | 107° |
| 2026-04-26 07:17 | 39.43371 | 54.33271 | 35237 ft | 515 kts | 107° |
| 2026-04-26 07:18 | 39.41484 | 54.42210 | 35235 ft | 515 kts | 107° |
| 2026-04-26 07:18 | 39.39591 | 54.51143 | 35239 ft | 515 kts | 107° |
| 2026-04-26 07:19 | 39.37692 | 54.60061 | 35237 ft | 515 kts | 107° |
| 2026-04-26 07:19 | 39.35786 | 54.68977 | 35242 ft | 515 kts | 108° |
| 2026-04-26 07:20 | 39.33886 | 54.77829 | 35242 ft | 514 kts | 108° |
| 2026-04-26 07:20 | 39.31969 | 54.86728 | 35241 ft | 514 kts | 108° |
| 2026-04-26 07:21 | 39.30045 | 54.95618 | 35245 ft | 514 kts | 108° |
| 2026-04-26 07:21 | 39.28101 | 55.04566 | 35242 ft | 514 kts | 108° |
| 2026-04-26 07:22 | 39.26162 | 55.13451 | 35240 ft | 514 kts | 108° |
| 2026-04-26 07:22 | 39.24218 | 55.22323 | 35238 ft | 514 kts | 108° |
| 2026-04-26 07:23 | 39.22254 | 55.31256 | 35236 ft | 514 kts | 108° |
| 2026-04-26 07:23 | 39.20295 | 55.40128 | 35240 ft | 514 kts | 108° |
| 2026-04-26 07:24 | 39.18334 | 55.48974 | 35240 ft | 514 kts | 108° |
| 2026-04-26 07:24 | 39.16366 | 55.57821 | 35236 ft | 513 kts | 108° |
| 2026-04-26 07:25 | 39.14369 | 55.66738 | 35244 ft | 513 kts | 108° |
| 2026-04-26 07:25 | 39.12384 | 55.75564 | 35245 ft | 513 kts | 108° |
| 2026-04-26 07:26 | 39.10394 | 55.84382 | 35243 ft | 513 kts | 108° |
| 2026-04-26 07:26 | 39.08395 | 55.93205 | 35243 ft | 513 kts | 108° |
| 2026-04-26 07:27 | 39.06377 | 56.02077 | 35241 ft | 513 kts | 108° |
| 2026-04-26 07:27 | 39.04369 | 56.10873 | 35243 ft | 513 kts | 108° |
| 2026-04-26 07:28 | 39.02352 | 56.19673 | 35245 ft | 513 kts | 108° |
| 2026-04-26 07:28 | 39.00331 | 56.28456 | 35243 ft | 512 kts | 108° |
| 2026-04-26 07:29 | 38.98024 | 56.37098 | 35240 ft | 511 kts | 111° |
| 2026-04-26 07:29 | 38.95664 | 56.45712 | 35246 ft | 511 kts | 111° |
| 2026-04-26 07:30 | 38.93299 | 56.54326 | 35248 ft | 511 kts | 111° |
| 2026-04-26 07:30 | 38.90926 | 56.62929 | 35251 ft | 511 kts | 111° |
| 2026-04-26 07:31 | 38.88548 | 56.71517 | 35249 ft | 511 kts | 111° |
| 2026-04-26 07:31 | 38.86161 | 56.80107 | 35253 ft | 511 kts | 111° |
| 2026-04-26 07:32 | 38.83771 | 56.88684 | 35252 ft | 511 kts | 111° |
| 2026-04-26 07:32 | 38.81373 | 56.97256 | 35256 ft | 511 kts | 111° |
| 2026-04-26 07:33 | 38.78969 | 57.05824 | 35253 ft | 511 kts | 111° |
| 2026-04-26 07:33 | 38.76560 | 57.14385 | 35270 ft | 510 kts | 112° |
| 2026-04-26 07:34 | 38.74145 | 57.22936 | 35267 ft | 510 kts | 112° |
| 2026-04-26 07:34 | 38.72135 | 57.30033 | 35266 ft | 510 kts | 112° |
| 2026-04-26 07:35 | 38.69713 | 57.38560 | 35271 ft | 510 kts | 112° |
| 2026-04-26 07:35 | 38.67282 | 57.47090 | 35261 ft | 510 kts | 112° |
| 2026-04-26 07:36 | 38.64846 | 57.55608 | 35266 ft | 509 kts | 112° |
| 2026-04-26 07:36 | 38.62408 | 57.64111 | 35255 ft | 509 kts | 112° |
| 2026-04-26 07:37 | 38.59644 | 57.72428 | 35252 ft | 508 kts | 116° |
| 2026-04-26 07:37 | 38.56768 | 57.80658 | 35268 ft | 507 kts | 116° |
| 2026-04-26 07:38 | 38.53889 | 57.88892 | 35265 ft | 507 kts | 116° |
| 2026-04-26 07:38 | 38.51002 | 57.97116 | 35264 ft | 507 kts | 116° |
| 2026-04-26 07:39 | 38.48112 | 58.05321 | 35262 ft | 507 kts | 116° |
| 2026-04-26 07:39 | 38.45211 | 58.13536 | 35265 ft | 507 kts | 116° |
| 2026-04-26 07:40 | 38.42327 | 58.21678 | 35268 ft | 507 kts | 116° |
| 2026-04-26 07:40 | 38.39294 | 58.29787 | 35262 ft | 505 kts | 122° |
| 2026-04-26 07:41 | 38.35676 | 58.37440 | 35261 ft | 504 kts | 124° |
| 2026-04-26 07:41 | 38.32063 | 58.45105 | 35264 ft | 504 kts | 123° |
| 2026-04-26 07:42 | 38.28443 | 58.52780 | 35268 ft | 505 kts | 124° |
| 2026-04-26 07:42 | 38.24824 | 58.60430 | 35267 ft | 505 kts | 124° |
| 2026-04-26 07:43 | 38.21192 | 58.68089 | 35263 ft | 505 kts | 124° |
| 2026-04-26 07:43 | 38.17578 | 58.75691 | 35260 ft | 505 kts | 124° |
| 2026-04-26 07:44 | 38.13912 | 58.83383 | 35263 ft | 505 kts | 124° |
| 2026-04-26 07:44 | 38.10263 | 58.91023 | 35266 ft | 505 kts | 124° |
| 2026-04-26 07:45 | 38.06613 | 58.98649 | 35265 ft | 506 kts | 124° |
| 2026-04-26 07:45 | 38.02950 | 59.06281 | 35253 ft | 506 kts | 124° |
| 2026-04-26 07:46 | 37.99309 | 59.13850 | 35256 ft | 506 kts | 124° |
| 2026-04-26 07:46 | 37.95638 | 59.21466 | 35275 ft | 506 kts | 124° |
| 2026-04-26 07:47 | 37.91963 | 59.29071 | 35271 ft | 506 kts | 124° |
| 2026-04-26 07:47 | 37.88170 | 59.36569 | 35265 ft | 504 kts | 130° |
| 2026-04-26 07:48 | 37.83914 | 59.43602 | 35267 ft | 504 kts | 131° |
| 2026-04-26 07:48 | 37.79668 | 59.50658 | 35266 ft | 504 kts | 131° |
| 2026-04-26 07:49 | 37.75421 | 59.57707 | 35269 ft | 504 kts | 131° |
| 2026-04-26 07:49 | 37.71161 | 59.64758 | 35266 ft | 505 kts | 131° |
| 2026-04-26 07:50 | 37.64758 | 59.75325 | 35271 ft | 505 kts | 131° |
| 2026-04-26 07:50 | 37.60485 | 59.82358 | 35266 ft | 505 kts | 131° |
| 2026-04-26 07:51 | 37.56209 | 59.89383 | 35268 ft | 505 kts | 131° |
| 2026-04-26 07:51 | 37.51923 | 59.96410 | 35270 ft | 505 kts | 131° |
| 2026-04-26 07:52 | 37.47637 | 60.03420 | 35274 ft | 505 kts | 131° |
| 2026-04-26 07:52 | 37.43347 | 60.10422 | 35275 ft | 505 kts | 131° |
| 2026-04-26 07:53 | 37.39050 | 60.17421 | 35269 ft | 505 kts | 131° |
| 2026-04-26 07:53 | 37.34752 | 60.24407 | 35271 ft | 505 kts | 131° |
| 2026-04-26 07:54 | 37.30478 | 60.31338 | 35267 ft | 504 kts | 131° |
| 2026-04-26 07:54 | 37.26176 | 60.38303 | 35267 ft | 504 kts | 131° |
| 2026-04-26 07:55 | 37.21874 | 60.45250 | 35265 ft | 504 kts | 132° |
| 2026-04-26 07:55 | 37.17571 | 60.52186 | 35266 ft | 503 kts | 131° |
| 2026-04-26 07:56 | 37.13269 | 60.59104 | 35267 ft | 503 kts | 132° |
| 2026-04-26 07:56 | 37.08971 | 60.66004 | 35264 ft | 502 kts | 132° |
| 2026-04-26 07:57 | 37.04670 | 60.72894 | 35262 ft | 502 kts | 132° |
| 2026-04-26 07:57 | 37.00366 | 60.79774 | 35261 ft | 502 kts | 132° |
| 2026-04-26 07:58 | 36.96108 | 60.86629 | 35257 ft | 502 kts | 130° |
| 2026-04-26 07:58 | 36.92108 | 60.93811 | 35257 ft | 503 kts | 128° |
| 2026-04-26 07:59 | 36.88138 | 61.01003 | 35257 ft | 503 kts | 128° |
| 2026-04-26 07:59 | 36.84122 | 61.08155 | 35250 ft | 502 kts | 129° |
| 2026-04-26 08:00 | 36.80095 | 61.15281 | 35252 ft | 502 kts | 129° |
| 2026-04-26 08:00 | 36.76068 | 61.22392 | 35254 ft | 502 kts | 129° |
| 2026-04-26 08:01 | 36.72032 | 61.29505 | 35242 ft | 501 kts | 129° |
| 2026-04-26 08:01 | 36.68005 | 61.36588 | 35237 ft | 502 kts | 129° |
| 2026-04-26 08:02 | 36.63962 | 61.43683 | 35253 ft | 502 kts | 129° |
| 2026-04-26 08:02 | 36.59891 | 61.50756 | 35250 ft | 502 kts | 130° |
| 2026-04-26 08:03 | 36.55768 | 61.57763 | 35246 ft | 502 kts | 130° |
| 2026-04-26 08:03 | 36.51638 | 61.64782 | 35247 ft | 503 kts | 130° |
| 2026-04-26 08:04 | 36.47503 | 61.71810 | 35246 ft | 504 kts | 130° |
| 2026-04-26 08:04 | 36.43365 | 61.78831 | 35246 ft | 504 kts | 130° |
| 2026-04-26 08:05 | 36.39213 | 61.85861 | 35241 ft | 505 kts | 130° |
| 2026-04-26 08:05 | 36.35073 | 61.92856 | 35232 ft | 506 kts | 130° |
| 2026-04-26 08:06 | 36.30895 | 61.99901 | 35229 ft | 507 kts | 130° |
| 2026-04-26 08:06 | 36.26708 | 62.06946 | 35230 ft | 508 kts | 131° |
| 2026-04-26 08:07 | 36.22503 | 62.14007 | 35229 ft | 509 kts | 131° |
| 2026-04-26 08:07 | 36.18283 | 62.21077 | 35220 ft | 511 kts | 131° |
| 2026-04-26 08:08 | 36.14049 | 62.28158 | 35218 ft | 513 kts | 131° |
| 2026-04-26 08:08 | 36.09790 | 62.35265 | 35214 ft | 515 kts | 131° |
| 2026-04-26 08:09 | 36.05521 | 62.42377 | 35222 ft | 516 kts | 131° |
| 2026-04-26 08:09 | 36.01226 | 62.49514 | 35227 ft | 518 kts | 131° |
| 2026-04-26 08:10 | 35.96922 | 62.56653 | 35225 ft | 519 kts | 131° |
| 2026-04-26 08:10 | 35.92596 | 62.63813 | 35234 ft | 520 kts | 131° |
| 2026-04-26 08:11 | 35.88268 | 62.70961 | 35234 ft | 521 kts | 132° |
| 2026-04-26 08:11 | 35.83921 | 62.78125 | 35235 ft | 522 kts | 132° |
| 2026-04-26 08:12 | 35.79567 | 62.85285 | 35231 ft | 523 kts | 132° |
| 2026-04-26 08:12 | 35.75202 | 62.92450 | 35233 ft | 523 kts | 132° |
| 2026-04-26 08:13 | 35.70836 | 62.99601 | 35234 ft | 523 kts | 132° |
| 2026-04-26 08:13 | 35.66453 | 63.06764 | 35238 ft | 524 kts | 132° |
| 2026-04-26 08:14 | 35.62066 | 63.13920 | 35256 ft | 525 kts | 132° |
| 2026-04-26 08:14 | 35.57654 | 63.21103 | 35247 ft | 527 kts | 132° |
| 2026-04-26 08:15 | 35.53189 | 63.28243 | 35243 ft | 528 kts | 133° |
| 2026-04-26 08:15 | 35.49462 | 63.34160 | 35244 ft | 526 kts | 133° |
| 2026-04-26 08:16 | 35.44989 | 63.41264 | 35241 ft | 527 kts | 133° |
| 2026-04-26 08:16 | 35.40506 | 63.48379 | 35248 ft | 527 kts | 132° |
| 2026-04-26 08:17 | 35.36021 | 63.55482 | 35254 ft | 527 kts | 132° |
| 2026-04-26 08:17 | 35.31539 | 63.62568 | 35249 ft | 523 kts | 132° |
| 2026-04-26 08:18 | 35.27083 | 63.69617 | 35252 ft | 524 kts | 132° |
| 2026-04-26 08:18 | 35.22636 | 63.76685 | 35256 ft | 523 kts | 132° |
| 2026-04-26 08:19 | 35.18196 | 63.83723 | 35248 ft | 523 kts | 132° |
| 2026-04-26 08:19 | 35.13744 | 63.90758 | 35253 ft | 521 kts | 132° |
| 2026-04-26 08:20 | 35.09344 | 63.97697 | 35246 ft | 519 kts | 132° |
| 2026-04-26 08:20 | 35.04917 | 64.04665 | 35242 ft | 518 kts | 132° |
| 2026-04-26 08:21 | 35.00507 | 64.11595 | 35237 ft | 517 kts | 132° |
| 2026-04-26 08:21 | 34.96091 | 64.18521 | 35229 ft | 516 kts | 132° |
| 2026-04-26 08:22 | 34.91683 | 64.25416 | 35232 ft | 515 kts | 132° |
| 2026-04-26 08:22 | 34.87279 | 64.32295 | 35227 ft | 515 kts | 132° |
| 2026-04-26 08:23 | 34.82865 | 64.39176 | 35245 ft | 517 kts | 132° |
| 2026-04-26 08:23 | 34.78435 | 64.46068 | 35249 ft | 516 kts | 132° |
| 2026-04-26 08:24 | 34.74004 | 64.52950 | 35247 ft | 516 kts | 133° |
| 2026-04-26 08:24 | 34.69604 | 64.59770 | 35245 ft | 516 kts | 133° |
| 2026-04-26 08:25 | 34.65166 | 64.66633 | 35245 ft | 516 kts | 133° |
| 2026-04-26 08:25 | 34.60734 | 64.73476 | 35241 ft | 515 kts | 133° |
| 2026-04-26 08:26 | 34.56310 | 64.80292 | 35226 ft | 513 kts | 133° |
| 2026-04-26 08:26 | 34.51891 | 64.87090 | 35221 ft | 512 kts | 133° |
| 2026-04-26 08:27 | 34.47483 | 64.93852 | 35216 ft | 511 kts | 133° |
| 2026-04-26 08:27 | 34.43060 | 65.00605 | 35206 ft | 511 kts | 133° |
| 2026-04-26 08:28 | 34.38633 | 65.07356 | 35205 ft | 511 kts | 133° |
| 2026-04-26 08:28 | 34.34220 | 65.14075 | 35215 ft | 510 kts | 133° |
| 2026-04-26 08:29 | 34.29829 | 65.20746 | 35205 ft | 509 kts | 133° |
| 2026-04-26 08:29 | 34.25417 | 65.27440 | 35197 ft | 508 kts | 133° |
| 2026-04-26 08:30 | 34.21011 | 65.34110 | 35191 ft | 508 kts | 133° |
| 2026-04-26 08:30 | 34.16582 | 65.40805 | 35183 ft | 507 kts | 133° |
| 2026-04-26 08:31 | 34.12174 | 65.47454 | 35172 ft | 507 kts | 133° |
| 2026-04-26 08:31 | 34.07774 | 65.54080 | 35160 ft | 505 kts | 133° |
| 2026-04-26 08:32 | 34.03382 | 65.60690 | 35138 ft | 505 kts | 133° |
| 2026-04-26 08:32 | 33.99023 | 65.67251 | 35124 ft | 504 kts | 133° |
| 2026-04-26 08:33 | 33.94632 | 65.73843 | 35109 ft | 504 kts | 133° |
| 2026-04-26 08:33 | 33.90239 | 65.80429 | 35093 ft | 505 kts | 133° |
| 2026-04-26 08:34 | 33.85834 | 65.87019 | 35081 ft | 505 kts | 133° |
| 2026-04-26 08:34 | 33.81427 | 65.93601 | 35069 ft | 506 kts | 133° |
| 2026-04-26 08:35 | 33.77008 | 66.00189 | 35060 ft | 505 kts | 133° |
| 2026-04-26 08:35 | 33.72592 | 66.06758 | 35053 ft | 506 kts | 133° |
| 2026-04-26 08:36 | 33.68151 | 66.13350 | 35048 ft | 507 kts | 133° |
| 2026-04-26 08:36 | 33.63717 | 66.19925 | 35033 ft | 507 kts | 133° |
| 2026-04-26 08:37 | 33.59277 | 66.26494 | 35026 ft | 507 kts | 133° |
| 2026-04-26 08:37 | 33.54821 | 66.33076 | 35025 ft | 508 kts | 133° |
| 2026-04-26 08:38 | 33.50365 | 66.39646 | 35022 ft | 508 kts | 133° |
| 2026-04-26 08:38 | 33.45903 | 66.46212 | 35021 ft | 507 kts | 133° |
| 2026-04-26 08:39 | 33.41439 | 66.52746 | 35049 ft | 507 kts | 133° |
| 2026-04-26 08:39 | 33.36971 | 66.59265 | 35056 ft | 504 kts | 133° |
| 2026-04-26 08:40 | 33.32543 | 66.65712 | 35061 ft | 506 kts | 133° |
| 2026-04-26 08:40 | 33.28074 | 66.72210 | 35069 ft | 505 kts | 133° |
| 2026-04-26 08:41 | 33.23617 | 66.78684 | 35076 ft | 504 kts | 133° |
| 2026-04-26 08:41 | 33.19167 | 66.85137 | 35076 ft | 503 kts | 133° |
| 2026-04-26 08:42 | 33.14711 | 66.91583 | 35076 ft | 503 kts | 133° |
| 2026-04-26 08:42 | 33.10258 | 66.98015 | 35071 ft | 502 kts | 133° |
| 2026-04-26 08:43 | 33.05809 | 67.04430 | 35057 ft | 501 kts | 133° |
| 2026-04-26 08:43 | 33.01369 | 67.10821 | 35048 ft | 500 kts | 133° |
| 2026-04-26 08:44 | 32.96937 | 67.17192 | 35031 ft | 499 kts | 133° |
| 2026-04-26 08:44 | 32.92502 | 67.23551 | 35009 ft | 498 kts | 133° |
| 2026-04-26 08:45 | 32.88077 | 67.29888 | 34992 ft | 498 kts | 133° |
| 2026-04-26 08:45 | 32.83641 | 67.36226 | 34979 ft | 499 kts | 133° |
| 2026-04-26 08:46 | 32.79194 | 67.42575 | 34968 ft | 499 kts | 133° |
| 2026-04-26 08:46 | 32.74740 | 67.48817 | 34965 ft | 498 kts | 135° |
| 2026-04-26 08:47 | 32.70123 | 67.54960 | 34948 ft | 498 kts | 135° |
| 2026-04-26 08:47 | 32.65506 | 67.61115 | 34945 ft | 499 kts | 135° |
| 2026-04-26 08:48 | 32.60899 | 67.67281 | 34942 ft | 499 kts | 135° |
| 2026-04-26 08:48 | 32.56287 | 67.73451 | 34938 ft | 500 kts | 135° |
| 2026-04-26 08:49 | 32.51665 | 67.79623 | 34935 ft | 501 kts | 135° |
| 2026-04-26 08:49 | 32.47106 | 67.85876 | 34938 ft | 503 kts | 133° |
| 2026-04-26 08:50 | 32.42693 | 67.92315 | 34943 ft | 503 kts | 133° |
| 2026-04-26 08:50 | 32.38265 | 67.98725 | 34952 ft | 503 kts | 133° |
| 2026-04-26 08:51 | 32.31580 | 68.08304 | 34966 ft | 503 kts | 133° |
| 2026-04-26 08:52 | 32.27121 | 68.14672 | 34973 ft | 502 kts | 133° |
| 2026-04-26 08:52 | 32.22670 | 68.21020 | 34971 ft | 502 kts | 133° |
| 2026-04-26 08:53 | 32.18211 | 68.27368 | 34968 ft | 502 kts | 133° |
| 2026-04-26 08:53 | 32.13749 | 68.33708 | 34964 ft | 502 kts | 133° |
| 2026-04-26 08:54 | 32.09290 | 68.40035 | 34961 ft | 502 kts | 133° |
| 2026-04-26 08:54 | 32.04847 | 68.46328 | 34960 ft | 502 kts | 133° |
| 2026-04-26 08:55 | 32.00374 | 68.52654 | 34957 ft | 503 kts | 133° |
| 2026-04-26 08:55 | 31.95892 | 68.58982 | 34950 ft | 503 kts | 133° |
| 2026-04-26 08:56 | 31.91406 | 68.65305 | 34940 ft | 503 kts | 133° |
| 2026-04-26 08:56 | 31.86910 | 68.71632 | 34929 ft | 504 kts | 133° |
| 2026-04-26 08:57 | 31.82409 | 68.77955 | 34924 ft | 504 kts | 133° |
| 2026-04-26 08:57 | 31.77899 | 68.84279 | 34917 ft | 505 kts | 133° |
| 2026-04-26 08:58 | 31.73373 | 68.90616 | 34910 ft | 506 kts | 133° |
| 2026-04-26 08:58 | 31.68847 | 68.96941 | 34899 ft | 506 kts | 132° |
| 2026-04-26 08:59 | 31.64347 | 69.03305 | 34891 ft | 508 kts | 131° |
| 2026-04-26 08:59 | 31.59994 | 69.09843 | 34880 ft | 509 kts | 130° |
| 2026-04-26 09:00 | 31.55628 | 69.16378 | 34882 ft | 509 kts | 130° |
| 2026-04-26 09:00 | 31.51981 | 69.21792 | 34873 ft | 509 kts | 130° |
| 2026-04-26 09:01 | 31.47572 | 69.28316 | 34865 ft | 511 kts | 131° |
| 2026-04-26 09:01 | 31.43152 | 69.34841 | 34875 ft | 512 kts | 131° |
| 2026-04-26 09:02 | 31.38713 | 69.41384 | 34867 ft | 513 kts | 131° |
| 2026-04-26 09:02 | 31.33947 | 69.47536 | 34872 ft | 507 kts | 141° |
| 2026-04-26 09:03 | 31.28497 | 69.52733 | 34872 ft | 505 kts | 144° |
| 2026-04-26 09:03 | 31.23032 | 69.57899 | 34868 ft | 505 kts | 144° |
| 2026-04-26 09:04 | 31.17571 | 69.63070 | 34866 ft | 506 kts | 144° |
| 2026-04-26 09:04 | 31.12098 | 69.68245 | 34876 ft | 506 kts | 144° |
| 2026-04-26 09:05 | 31.06623 | 69.73414 | 34877 ft | 506 kts | 144° |
| 2026-04-26 09:05 | 31.01190 | 69.78535 | 34869 ft | 504 kts | 144° |
| 2026-04-26 09:06 | 30.95761 | 69.83644 | 34862 ft | 502 kts | 144° |
| 2026-04-26 09:06 | 30.90318 | 69.88758 | 34849 ft | 502 kts | 144° |
| 2026-04-26 09:07 | 30.84892 | 69.93850 | 34844 ft | 501 kts | 143° |
| 2026-04-26 09:07 | 30.79455 | 69.98943 | 34838 ft | 501 kts | 144° |
| 2026-04-26 09:08 | 30.74029 | 70.04020 | 34825 ft | 500 kts | 143° |
| 2026-04-26 09:08 | 30.68611 | 70.09079 | 34822 ft | 500 kts | 144° |
| 2026-04-26 09:09 | 30.63190 | 70.14136 | 34812 ft | 500 kts | 144° |
| 2026-04-26 09:09 | 30.57761 | 70.19192 | 34804 ft | 500 kts | 144° |
| 2026-04-26 09:10 | 30.52335 | 70.24237 | 34797 ft | 500 kts | 144° |
| 2026-04-26 09:10 | 30.46904 | 70.29279 | 34790 ft | 500 kts | 144° |
| 2026-04-26 09:11 | 30.41470 | 70.34318 | 34779 ft | 500 kts | 144° |
| 2026-04-26 09:11 | 30.36037 | 70.39347 | 34770 ft | 500 kts | 144° |
| 2026-04-26 09:12 | 30.30590 | 70.44382 | 34763 ft | 501 kts | 144° |
| 2026-04-26 09:12 | 30.25136 | 70.49416 | 34756 ft | 501 kts | 144° |
| 2026-04-26 09:13 | 30.19700 | 70.54451 | 34749 ft | 501 kts | 143° |
| 2026-04-26 09:13 | 30.14312 | 70.59569 | 34733 ft | 502 kts | 143° |
| 2026-04-26 09:14 | 30.08919 | 70.64686 | 34728 ft | 501 kts | 143° |
| 2026-04-26 09:14 | 30.03521 | 70.69785 | 34743 ft | 501 kts | 143° |
| 2026-04-26 09:15 | 29.98129 | 70.74866 | 34726 ft | 500 kts | 143° |
| 2026-04-26 09:15 | 29.92744 | 70.79933 | 34733 ft | 500 kts | 143° |
| 2026-04-26 09:16 | 29.87388 | 70.84967 | 34729 ft | 499 kts | 143° |
| 2026-04-26 09:16 | 29.82010 | 70.90013 | 34724 ft | 499 kts | 143° |
| 2026-04-26 09:17 | 29.76630 | 70.95056 | 34721 ft | 498 kts | 143° |
| 2026-04-26 09:17 | 29.71248 | 71.00091 | 34715 ft | 498 kts | 143° |
| 2026-04-26 09:18 | 29.65889 | 71.05150 | 34719 ft | 499 kts | 141° |
| 2026-04-26 09:18 | 29.60722 | 71.10482 | 34710 ft | 499 kts | 140° |
| 2026-04-26 09:19 | 29.55558 | 71.15827 | 34694 ft | 499 kts | 140° |
| 2026-04-26 09:19 | 29.50368 | 71.21133 | 34694 ft | 499 kts | 140° |
| 2026-04-26 09:20 | 29.45176 | 71.26415 | 34694 ft | 499 kts | 140° |
| 2026-04-26 09:20 | 29.39974 | 71.31701 | 34688 ft | 499 kts | 141° |
| 2026-04-26 09:21 | 29.34807 | 71.36945 | 34691 ft | 499 kts | 140° |
| 2026-04-26 09:21 | 29.29575 | 71.42247 | 34692 ft | 499 kts | 141° |
| 2026-04-26 09:22 | 29.24424 | 71.47502 | 34691 ft | 499 kts | 140° |
| 2026-04-26 09:22 | 29.19258 | 71.52794 | 34689 ft | 499 kts | 140° |
| 2026-04-26 09:23 | 29.14066 | 71.58099 | 34692 ft | 500 kts | 140° |
| 2026-04-26 09:23 | 29.08843 | 71.63422 | 34694 ft | 500 kts | 140° |
| 2026-04-26 09:24 | 29.03681 | 71.68675 | 34691 ft | 500 kts | 140° |
| 2026-04-26 09:24 | 28.98488 | 71.73953 | 34695 ft | 500 kts | 140° |
| 2026-04-26 09:25 | 28.93252 | 71.79267 | 34687 ft | 500 kts | 140° |
| 2026-04-26 09:25 | 28.88092 | 71.84496 | 34684 ft | 500 kts | 140° |
| 2026-04-26 09:26 | 28.82890 | 71.89760 | 34689 ft | 500 kts | 140° |
| 2026-04-26 09:26 | 28.77683 | 71.95023 | 34680 ft | 500 kts | 141° |
| 2026-04-26 09:27 | 28.72481 | 72.00273 | 34680 ft | 500 kts | 141° |
| 2026-04-26 09:27 | 28.67274 | 72.05522 | 34681 ft | 500 kts | 141° |
| 2026-04-26 09:28 | 28.62063 | 72.10767 | 34679 ft | 500 kts | 141° |
| 2026-04-26 09:28 | 28.56852 | 72.16004 | 34671 ft | 500 kts | 141° |
| 2026-04-26 09:29 | 28.51667 | 72.21294 | 34664 ft | 501 kts | 136° |
| 2026-04-26 09:29 | 28.49478 | 72.24379 | 34666 ft | 504 kts | 124° |
| 2026-04-26 09:29 | 28.47819 | 72.27891 | 34659 ft | 507 kts | 113° |
| 2026-04-26 09:29 | 28.46753 | 72.31715 | 34660 ft | 508 kts | 102° |
| 2026-04-26 09:30 | 28.46165 | 72.35670 | 34657 ft | 508 kts | 98° |
| 2026-04-26 09:30 | 28.45172 | 72.43638 | 34660 ft | 509 kts | 98° |
| 2026-04-26 09:31 | 28.44046 | 72.51588 | 34665 ft | 509 kts | 99° |
| 2026-04-26 09:31 | 28.42848 | 72.59525 | 34667 ft | 510 kts | 100° |
| 2026-04-26 09:32 | 28.41637 | 72.67458 | 34668 ft | 510 kts | 100° |
| 2026-04-26 09:32 | 28.40422 | 72.75395 | 34667 ft | 510 kts | 100° |
| 2026-04-26 09:33 | 28.39211 | 72.83278 | 34667 ft | 510 kts | 100° |
| 2026-04-26 09:33 | 28.37985 | 72.91226 | 34668 ft | 510 kts | 100° |
| 2026-04-26 09:34 | 28.36755 | 72.99170 | 34667 ft | 510 kts | 100° |
| 2026-04-26 09:34 | 28.35520 | 73.07105 | 34667 ft | 510 kts | 100° |
| 2026-04-26 09:35 | 28.34282 | 73.15038 | 34666 ft | 511 kts | 100° |
| 2026-04-26 09:35 | 28.33039 | 73.22972 | 34664 ft | 511 kts | 100° |
| 2026-04-26 09:36 | 28.31790 | 73.30909 | 34663 ft | 511 kts | 100° |
| 2026-04-26 09:36 | 28.30537 | 73.38850 | 34664 ft | 511 kts | 100° |
| 2026-04-26 09:37 | 28.29279 | 73.46784 | 34671 ft | 511 kts | 100° |
| 2026-04-26 09:37 | 28.28023 | 73.54673 | 34673 ft | 511 kts | 100° |
| 2026-04-26 09:38 | 28.26756 | 73.62608 | 34676 ft | 511 kts | 100° |
| 2026-04-26 09:38 | 28.25484 | 73.70543 | 34682 ft | 511 kts | 100° |
| 2026-04-26 09:39 | 28.24207 | 73.78474 | 34684 ft | 511 kts | 100° |
| 2026-04-26 09:39 | 28.22926 | 73.86406 | 34686 ft | 511 kts | 100° |
| 2026-04-26 09:40 | 28.21641 | 73.94331 | 34690 ft | 511 kts | 100° |
| 2026-04-26 09:40 | 28.20350 | 74.02264 | 34695 ft | 511 kts | 100° |
| 2026-04-26 09:41 | 28.19223 | 74.10211 | 34695 ft | 511 kts | 94° |
| 2026-04-26 09:41 | 28.19383 | 74.18231 | 34691 ft | 510 kts | 84° |
| 2026-04-26 09:42 | 28.19977 | 74.26244 | 34695 ft | 510 kts | 84° |
| 2026-04-26 09:42 | 28.20539 | 74.34264 | 34696 ft | 510 kts | 84° |
| 2026-04-26 09:43 | 28.21001 | 74.40932 | 34700 ft | 510 kts | 84° |
| 2026-04-26 09:43 | 28.21553 | 74.48948 | 34700 ft | 510 kts | 84° |
| 2026-04-26 09:44 | 28.22102 | 74.56975 | 34705 ft | 510 kts | 84° |
| 2026-04-26 09:44 | 28.22646 | 74.64996 | 34707 ft | 510 kts | 84° |
| 2026-04-26 09:45 | 28.23185 | 74.73023 | 34708 ft | 510 kts | 84° |
| 2026-04-26 09:45 | 28.23720 | 74.81053 | 34706 ft | 510 kts | 84° |
| 2026-04-26 09:46 | 28.24250 | 74.89085 | 34706 ft | 511 kts | 84° |
| 2026-04-26 09:46 | 28.24775 | 74.97126 | 34709 ft | 511 kts | 84° |
| 2026-04-26 09:47 | 28.25296 | 75.05157 | 34708 ft | 511 kts | 84° |
| 2026-04-26 09:47 | 28.25813 | 75.13195 | 34710 ft | 511 kts | 84° |
| 2026-04-26 09:48 | 28.26324 | 75.21232 | 34711 ft | 511 kts | 84° |
| 2026-04-26 09:48 | 28.26831 | 75.29280 | 34711 ft | 511 kts | 84° |
| 2026-04-26 09:49 | 28.27333 | 75.37311 | 34716 ft | 511 kts | 84° |
| 2026-04-26 09:49 | 28.27827 | 75.45312 | 34717 ft | 511 kts | 84° |
| 2026-04-26 09:50 | 28.28320 | 75.53366 | 34717 ft | 511 kts | 84° |
| 2026-04-26 09:50 | 28.28808 | 75.61407 | 34722 ft | 511 kts | 84° |
| 2026-04-26 09:51 | 28.29291 | 75.69454 | 34722 ft | 511 kts | 84° |
| 2026-04-26 09:51 | 28.29770 | 75.77500 | 34725 ft | 510 kts | 84° |
| 2026-04-26 09:52 | 28.30242 | 75.85530 | 34721 ft | 510 kts | 84° |
| 2026-04-26 09:52 | 28.30943 | 75.97580 | 34725 ft | 510 kts | 84° |
| 2026-04-26 09:53 | 28.31404 | 76.05608 | 34724 ft | 509 kts | 84° |
| 2026-04-26 09:53 | 28.31860 | 76.13628 | 34724 ft | 509 kts | 84° |
| 2026-04-26 09:54 | 28.32308 | 76.21585 | 34731 ft | 508 kts | 84° |
| 2026-04-26 09:54 | 28.32754 | 76.29600 | 34734 ft | 508 kts | 84° |
| 2026-04-26 09:55 | 28.33195 | 76.37599 | 34725 ft | 508 kts | 84° |
| 2026-04-26 09:55 | 28.33631 | 76.45612 | 34731 ft | 508 kts | 85° |
| 2026-04-26 09:56 | 28.34062 | 76.53619 | 34725 ft | 508 kts | 85° |
| 2026-04-26 09:56 | 28.34443 | 76.61619 | 34721 ft | 508 kts | 89° |
| 2026-04-26 09:57 | 28.33580 | 76.69583 | 34723 ft | 511 kts | 104° |
| 2026-04-26 09:57 | 28.31200 | 76.77179 | 34731 ft | 511 kts | 111° |
| 2026-04-26 09:58 | 28.28648 | 76.84716 | 34731 ft | 512 kts | 111° |
| 2026-04-26 09:58 | 28.26109 | 76.92253 | 34734 ft | 512 kts | 111° |
| 2026-04-26 09:59 | 28.23559 | 76.99796 | 34728 ft | 512 kts | 111° |
| 2026-04-26 09:59 | 28.20999 | 77.07346 | 34731 ft | 513 kts | 111° |
| 2026-04-26 10:00 | 28.18430 | 77.14905 | 34735 ft | 513 kts | 111° |
| 2026-04-26 10:00 | 28.15858 | 77.22458 | 34719 ft | 514 kts | 111° |
| 2026-04-26 10:01 | 28.13280 | 77.30013 | 34713 ft | 514 kts | 111° |
| 2026-04-26 10:01 | 28.10716 | 77.37515 | 34720 ft | 514 kts | 111° |
| 2026-04-26 10:02 | 28.08133 | 77.45057 | 34724 ft | 513 kts | 111° |
| 2026-04-26 10:02 | 28.05553 | 77.52574 | 34719 ft | 512 kts | 111° |
| 2026-04-26 10:03 | 28.02968 | 77.60087 | 34708 ft | 511 kts | 111° |
| 2026-04-26 10:03 | 28.00389 | 77.67569 | 34712 ft | 510 kts | 111° |
| 2026-04-26 10:04 | 27.97820 | 77.75001 | 34701 ft | 509 kts | 111° |
| 2026-04-26 10:04 | 27.95221 | 77.82509 | 34701 ft | 509 kts | 111° |
| 2026-04-26 10:05 | 27.92656 | 77.89903 | 34699 ft | 509 kts | 111° |
| 2026-04-26 10:05 | 27.90067 | 77.97353 | 34680 ft | 509 kts | 111° |
| 2026-04-26 10:06 | 27.87475 | 78.04796 | 34677 ft | 509 kts | 111° |
| 2026-04-26 10:06 | 27.84876 | 78.12242 | 34693 ft | 509 kts | 111° |
| 2026-04-26 10:07 | 27.82267 | 78.19690 | 34673 ft | 510 kts | 112° |
| 2026-04-26 10:07 | 27.79501 | 78.27073 | 34659 ft | 510 kts | 113° |
| 2026-04-26 10:08 | 27.76703 | 78.34447 | 34666 ft | 511 kts | 113° |
| 2026-04-26 10:08 | 27.73919 | 78.41832 | 34669 ft | 511 kts | 113° |
| 2026-04-26 10:09 | 27.71138 | 78.49216 | 34656 ft | 511 kts | 113° |
| 2026-04-26 10:09 | 27.68354 | 78.56597 | 34657 ft | 511 kts | 113° |
| 2026-04-26 10:10 | 27.65561 | 78.63985 | 34655 ft | 512 kts | 113° |
| 2026-04-26 10:10 | 27.62764 | 78.71367 | 34640 ft | 512 kts | 113° |
| 2026-04-26 10:11 | 27.59961 | 78.78754 | 34643 ft | 512 kts | 114° |
| 2026-04-26 10:11 | 27.57155 | 78.86134 | 34637 ft | 512 kts | 114° |
| 2026-04-26 10:12 | 27.54340 | 78.93522 | 34641 ft | 512 kts | 114° |
| 2026-04-26 10:12 | 27.51525 | 79.00895 | 34638 ft | 512 kts | 114° |
| 2026-04-26 10:13 | 27.48704 | 79.08272 | 34635 ft | 512 kts | 114° |
| 2026-04-26 10:13 | 27.45898 | 79.15596 | 34635 ft | 512 kts | 114° |
| 2026-04-26 10:14 | 27.43072 | 79.22958 | 34636 ft | 512 kts | 114° |
| 2026-04-26 10:14 | 27.40221 | 79.30370 | 34639 ft | 512 kts | 114° |
| 2026-04-26 10:15 | 27.37405 | 79.37677 | 34632 ft | 512 kts | 114° |
| 2026-04-26 10:15 | 27.34564 | 79.45035 | 34632 ft | 512 kts | 114° |
| 2026-04-26 10:16 | 27.31706 | 79.52360 | 34637 ft | 512 kts | 115° |
| 2026-04-26 10:16 | 27.28765 | 79.59656 | 34640 ft | 511 kts | 115° |
| 2026-04-26 10:17 | 27.25830 | 79.66939 | 34640 ft | 511 kts | 115° |
| 2026-04-26 10:17 | 27.22903 | 79.74215 | 34636 ft | 511 kts | 115° |
| 2026-04-26 10:18 | 27.19972 | 79.81490 | 34638 ft | 511 kts | 115° |
| 2026-04-26 10:18 | 27.17040 | 79.88755 | 34641 ft | 510 kts | 115° |
| 2026-04-26 10:19 | 27.14125 | 79.95965 | 34637 ft | 510 kts | 115° |
| 2026-04-26 10:19 | 27.11186 | 80.03221 | 34635 ft | 510 kts | 115° |
| 2026-04-26 10:20 | 27.08741 | 80.09248 | 34634 ft | 510 kts | 115° |
| 2026-04-26 10:20 | 27.05294 | 80.17728 | 34636 ft | 511 kts | 115° |
| 2026-04-26 10:21 | 27.02341 | 80.24980 | 34635 ft | 511 kts | 115° |
| 2026-04-26 10:21 | 26.99384 | 80.32228 | 34634 ft | 511 kts | 115° |
| 2026-04-26 10:22 | 26.96423 | 80.39475 | 34637 ft | 511 kts | 115° |
| 2026-04-26 10:22 | 26.93455 | 80.46723 | 34639 ft | 511 kts | 115° |
| 2026-04-26 10:23 | 26.90500 | 80.53930 | 34641 ft | 512 kts | 115° |
| 2026-04-26 10:23 | 26.87528 | 80.61165 | 34636 ft | 512 kts | 115° |
| 2026-04-26 10:24 | 26.84548 | 80.68404 | 34635 ft | 512 kts | 115° |
| 2026-04-26 10:24 | 26.81564 | 80.75640 | 34640 ft | 511 kts | 115° |
| 2026-04-26 10:25 | 26.78580 | 80.82863 | 34639 ft | 511 kts | 115° |
| 2026-04-26 10:25 | 26.75403 | 80.89966 | 34642 ft | 510 kts | 122° |
| 2026-04-26 10:26 | 26.71319 | 80.96438 | 34636 ft | 509 kts | 127° |
| 2026-04-26 10:26 | 26.67847 | 81.01746 | 34628 ft | 509 kts | 127° |
| 2026-04-26 10:27 | 26.63682 | 81.08143 | 34630 ft | 508 kts | 127° |
| 2026-04-26 10:27 | 26.59518 | 81.14525 | 34624 ft | 508 kts | 127° |
| 2026-04-26 10:28 | 26.55343 | 81.20912 | 34617 ft | 508 kts | 127° |
| 2026-04-26 10:28 | 26.51173 | 81.27282 | 34620 ft | 508 kts | 127° |
| 2026-04-26 10:29 | 26.47001 | 81.33646 | 34619 ft | 508 kts | 127° |
| 2026-04-26 10:29 | 26.42855 | 81.39962 | 34620 ft | 507 kts | 127° |
| 2026-04-26 10:30 | 26.38681 | 81.46312 | 34623 ft | 507 kts | 127° |
| 2026-04-26 10:30 | 26.34506 | 81.52652 | 34616 ft | 506 kts | 127° |
| 2026-04-26 10:31 | 26.30333 | 81.58983 | 34610 ft | 506 kts | 127° |
| 2026-04-26 10:31 | 26.26162 | 81.65301 | 34613 ft | 506 kts | 127° |
| 2026-04-26 10:32 | 26.21993 | 81.71607 | 34612 ft | 505 kts | 127° |
| 2026-04-26 10:32 | 26.17823 | 81.77906 | 34610 ft | 505 kts | 127° |
| 2026-04-26 10:33 | 26.13678 | 81.84160 | 34609 ft | 505 kts | 127° |
| 2026-04-26 10:33 | 26.09506 | 81.90446 | 34609 ft | 505 kts | 127° |
| 2026-04-26 10:34 | 26.05334 | 81.96723 | 34613 ft | 505 kts | 127° |
| 2026-04-26 10:34 | 26.01152 | 82.03006 | 34611 ft | 505 kts | 127° |
| 2026-04-26 10:35 | 25.96972 | 82.09278 | 34611 ft | 505 kts | 127° |
| 2026-04-26 10:35 | 25.92790 | 82.15545 | 34611 ft | 505 kts | 127° |
| 2026-04-26 10:36 | 25.88606 | 82.21806 | 34612 ft | 505 kts | 127° |
| 2026-04-26 10:36 | 25.84413 | 82.28071 | 34607 ft | 505 kts | 127° |
| 2026-04-26 10:37 | 25.80243 | 82.34295 | 34614 ft | 505 kts | 128° |
| 2026-04-26 10:37 | 25.76042 | 82.40556 | 34604 ft | 506 kts | 128° |
| 2026-04-26 10:38 | 25.71829 | 82.46826 | 34601 ft | 506 kts | 128° |
| 2026-04-26 10:38 | 25.67617 | 82.53088 | 34615 ft | 507 kts | 128° |
| 2026-04-26 10:39 | 25.63396 | 82.59353 | 34608 ft | 508 kts | 128° |
| 2026-04-26 10:39 | 25.59164 | 82.65626 | 34605 ft | 508 kts | 128° |
| 2026-04-26 10:40 | 25.54922 | 82.71906 | 34607 ft | 509 kts | 128° |
| 2026-04-26 10:40 | 25.50672 | 82.78188 | 34605 ft | 510 kts | 128° |
| 2026-04-26 10:41 | 25.46414 | 82.84479 | 34606 ft | 511 kts | 128° |
| 2026-04-26 10:41 | 25.41896 | 82.90524 | 34604 ft | 510 kts | 132° |
| 2026-04-26 10:42 | 25.37298 | 82.96509 | 34604 ft | 511 kts | 132° |
| 2026-04-26 10:42 | 25.32694 | 83.02507 | 34610 ft | 512 kts | 132° |
| 2026-04-26 10:43 | 25.28081 | 83.08500 | 34620 ft | 512 kts | 133° |
| 2026-04-26 10:43 | 25.23451 | 83.14504 | 34625 ft | 513 kts | 133° |
| 2026-04-26 10:44 | 25.18818 | 83.20506 | 34630 ft | 514 kts | 133° |
| 2026-04-26 10:44 | 25.14205 | 83.26475 | 34638 ft | 515 kts | 133° |
| 2026-04-26 10:45 | 25.09552 | 83.32487 | 34642 ft | 515 kts | 133° |
| 2026-04-26 10:45 | 25.04898 | 83.38494 | 34649 ft | 516 kts | 133° |
| 2026-04-26 10:46 | 25.00228 | 83.44514 | 34652 ft | 516 kts | 134° |
| 2026-04-26 10:46 | 24.95557 | 83.50526 | 34655 ft | 517 kts | 134° |
| 2026-04-26 10:47 | 24.90873 | 83.56550 | 34664 ft | 517 kts | 134° |
| 2026-04-26 10:47 | 24.86191 | 83.62561 | 34664 ft | 518 kts | 134° |
| 2026-04-26 10:48 | 24.81519 | 83.68551 | 34670 ft | 519 kts | 134° |
| 2026-04-26 10:48 | 24.76777 | 83.74623 | 34669 ft | 519 kts | 135° |
| 2026-04-26 10:49 | 24.72093 | 83.80615 | 34671 ft | 520 kts | 135° |
| 2026-04-26 10:49 | 24.67366 | 83.86653 | 34664 ft | 522 kts | 135° |
| 2026-04-26 10:50 | 24.63389 | 83.91728 | 34666 ft | 523 kts | 135° |
| 2026-04-26 10:50 | 24.57855 | 83.98781 | 34666 ft | 525 kts | 136° |
| 2026-04-26 10:51 | 24.50633 | 84.07968 | 34668 ft | 529 kts | 136° |
| 2026-04-26 10:52 | 24.45819 | 84.14082 | 34672 ft | 530 kts | 136° |
| 2026-04-26 10:52 | 24.40986 | 84.20212 | 34680 ft | 532 kts | 137° |
| 2026-04-26 10:53 | 24.36133 | 84.26359 | 34686 ft | 533 kts | 137° |
| 2026-04-26 10:53 | 24.31234 | 84.32557 | 34685 ft | 534 kts | 137° |
| 2026-04-26 10:54 | 24.23912 | 84.41806 | 34705 ft | 536 kts | 137° |
| 2026-04-26 10:54 | 24.19016 | 84.47978 | 34719 ft | 537 kts | 138° |
| 2026-04-26 10:55 | 24.14083 | 84.54140 | 34717 ft | 538 kts | 138° |
| 2026-04-26 10:55 | 24.09956 | 84.59294 | 34725 ft | 538 kts | 138° |
| 2026-04-26 10:56 | 24.04224 | 84.66448 | 34740 ft | 537 kts | 138° |
| 2026-04-26 10:56 | 23.99301 | 84.72586 | 34744 ft | 537 kts | 138° |
| 2026-04-26 10:57 | 23.94368 | 84.78726 | 34746 ft | 536 kts | 138° |
| 2026-04-26 10:57 | 23.89439 | 84.84854 | 34747 ft | 536 kts | 138° |
| 2026-04-26 10:58 | 23.84514 | 84.90968 | 34750 ft | 535 kts | 138° |
| 2026-04-26 10:58 | 23.79592 | 84.97073 | 34762 ft | 535 kts | 138° |
| 2026-04-26 10:59 | 23.74677 | 85.03160 | 34759 ft | 534 kts | 139° |
| 2026-04-26 10:59 | 23.69758 | 85.09244 | 34763 ft | 533 kts | 139° |
| 2026-04-26 11:00 | 23.64852 | 85.15305 | 34776 ft | 532 kts | 139° |
| 2026-04-26 11:00 | 23.59949 | 85.21353 | 34783 ft | 531 kts | 139° |
| 2026-04-26 11:01 | 23.55053 | 85.27386 | 34789 ft | 530 kts | 139° |
| 2026-04-26 11:01 | 23.50171 | 85.33394 | 34792 ft | 528 kts | 139° |
| 2026-04-26 11:02 | 23.45331 | 85.39341 | 34801 ft | 527 kts | 139° |
| 2026-04-26 11:02 | 23.40469 | 85.45310 | 34795 ft | 527 kts | 139° |
| 2026-04-26 11:03 | 23.35603 | 85.51279 | 34795 ft | 527 kts | 139° |
| 2026-04-26 11:03 | 23.30738 | 85.57239 | 34788 ft | 527 kts | 138° |
| 2026-04-26 11:04 | 23.25869 | 85.63196 | 34780 ft | 527 kts | 138° |
| 2026-04-26 11:04 | 23.20992 | 85.69157 | 34767 ft | 527 kts | 138° |
| 2026-04-26 11:05 | 23.16114 | 85.75111 | 34765 ft | 528 kts | 138° |
| 2026-04-26 11:05 | 23.11232 | 85.81065 | 34761 ft | 528 kts | 138° |
| 2026-04-26 11:06 | 23.07174 | 85.86008 | 34759 ft | 528 kts | 138° |
| 2026-04-26 11:06 | 23.01458 | 85.92961 | 34742 ft | 528 kts | 138° |
| 2026-04-26 11:07 | 22.97391 | 85.97903 | 34728 ft | 527 kts | 138° |
| 2026-04-26 11:07 | 22.92500 | 86.03839 | 34714 ft | 527 kts | 138° |
| 2026-04-26 11:08 | 22.87609 | 86.09768 | 34698 ft | 527 kts | 138° |
| 2026-04-26 11:08 | 22.82720 | 86.15689 | 34696 ft | 527 kts | 138° |
| 2026-04-26 11:09 | 22.78368 | 86.22141 | 34662 ft | 534 kts | 128° |
| 2026-04-26 11:09 | 22.74287 | 86.28867 | 34674 ft | 534 kts | 128° |
| 2026-04-26 11:10 | 22.70185 | 86.35578 | 34697 ft | 533 kts | 128° |
| 2026-04-26 11:10 | 22.66082 | 86.42267 | 34715 ft | 533 kts | 128° |
| 2026-04-26 11:11 | 22.62000 | 86.48913 | 34733 ft | 533 kts | 127° |
| 2026-04-26 11:11 | 22.57893 | 86.55594 | 34731 ft | 533 kts | 127° |
| 2026-04-26 11:12 | 22.53784 | 86.62269 | 34725 ft | 533 kts | 128° |
| 2026-04-26 11:12 | 22.49666 | 86.68951 | 34712 ft | 535 kts | 128° |
| 2026-04-26 11:13 | 22.45528 | 86.75654 | 34694 ft | 537 kts | 128° |
| 2026-04-26 11:13 | 22.41371 | 86.82380 | 34691 ft | 540 kts | 128° |
| 2026-04-26 11:14 | 22.37158 | 86.89190 | 34685 ft | 542 kts | 128° |
| 2026-04-26 11:14 | 22.32953 | 86.95977 | 34687 ft | 545 kts | 127° |
| 2026-04-26 11:15 | 22.28728 | 87.02788 | 34686 ft | 547 kts | 128° |
| 2026-04-26 11:15 | 22.24486 | 87.09619 | 34695 ft | 548 kts | 128° |
| 2026-04-26 11:16 | 22.20231 | 87.16461 | 34698 ft | 549 kts | 128° |
| 2026-04-26 11:16 | 22.15975 | 87.23298 | 34703 ft | 549 kts | 128° |
| 2026-04-26 11:17 | 22.12106 | 87.30412 | 34704 ft | 551 kts | 122° |
| 2026-04-26 11:17 | 22.08467 | 87.37685 | 34710 ft | 551 kts | 122° |
| 2026-04-26 11:18 | 22.04809 | 87.44949 | 34709 ft | 551 kts | 122° |
| 2026-04-26 11:18 | 22.01147 | 87.52204 | 34713 ft | 550 kts | 122° |
| 2026-04-26 11:19 | 21.97484 | 87.59449 | 34713 ft | 550 kts | 122° |
| 2026-04-26 11:19 | 21.93827 | 87.66674 | 34718 ft | 549 kts | 122° |
| 2026-04-26 11:20 | 21.90781 | 87.72684 | 34716 ft | 549 kts | 122° |
| 2026-04-26 11:20 | 21.86497 | 87.81125 | 34722 ft | 549 kts | 122° |
| 2026-04-26 11:21 | 21.82853 | 87.88293 | 34720 ft | 549 kts | 122° |
| 2026-04-26 11:21 | 21.79191 | 87.95488 | 34721 ft | 548 kts | 122° |
| 2026-04-26 11:22 | 21.75525 | 88.02681 | 34724 ft | 548 kts | 122° |
| 2026-04-26 11:22 | 21.71858 | 88.09865 | 34731 ft | 547 kts | 122° |
| 2026-04-26 11:23 | 21.68194 | 88.17034 | 34732 ft | 547 kts | 123° |
| 2026-04-26 11:23 | 21.64528 | 88.24198 | 34735 ft | 547 kts | 123° |
| 2026-04-26 11:24 | 21.60861 | 88.31352 | 34739 ft | 546 kts | 123° |
| 2026-04-26 11:24 | 21.57197 | 88.38493 | 34740 ft | 546 kts | 123° |
| 2026-04-26 11:25 | 21.53530 | 88.45630 | 34746 ft | 545 kts | 123° |
| 2026-04-26 11:25 | 21.49865 | 88.52753 | 34748 ft | 544 kts | 123° |
| 2026-04-26 11:26 | 21.46204 | 88.59858 | 34750 ft | 544 kts | 123° |
| 2026-04-26 11:26 | 21.42567 | 88.66908 | 34754 ft | 543 kts | 123° |
| 2026-04-26 11:27 | 21.38880 | 88.73975 | 34751 ft | 540 kts | 126° |
| 2026-04-26 11:27 | 21.34450 | 88.80218 | 34752 ft | 530 kts | 139° |
| 2026-04-26 11:28 | 21.29050 | 88.85505 | 34752 ft | 524 kts | 145° |
| 2026-04-26 11:28 | 21.23555 | 88.90650 | 34757 ft | 524 kts | 144° |
| 2026-04-26 11:29 | 21.18072 | 88.95802 | 34756 ft | 524 kts | 144° |
| 2026-04-26 11:29 | 21.12595 | 89.00942 | 34760 ft | 523 kts | 144° |
| 2026-04-26 11:30 | 21.08044 | 89.05207 | 34760 ft | 523 kts | 144° |
| 2026-04-26 11:30 | 21.01646 | 89.11195 | 34762 ft | 522 kts | 144° |
| 2026-04-26 11:31 | 20.96178 | 89.16308 | 34765 ft | 522 kts | 144° |
| 2026-04-26 11:31 | 20.90961 | 89.21658 | 34765 ft | 528 kts | 135° |
| 2026-04-26 11:32 | 20.86613 | 89.27769 | 34763 ft | 531 kts | 131° |
| 2026-04-26 11:32 | 20.82208 | 89.34091 | 34776 ft | 530 kts | 131° |
| 2026-04-26 11:33 | 20.77791 | 89.40399 | 34785 ft | 530 kts | 131° |
| 2026-04-26 11:33 | 20.73377 | 89.46694 | 34762 ft | 529 kts | 131° |
| 2026-04-26 11:34 | 20.68967 | 89.52976 | 34774 ft | 528 kts | 131° |
| 2026-04-26 11:34 | 20.64557 | 89.59252 | 34782 ft | 528 kts | 131° |
| 2026-04-26 11:35 | 20.60148 | 89.65519 | 34782 ft | 527 kts | 131° |
| 2026-04-26 11:35 | 20.56485 | 89.70719 | 34777 ft | 527 kts | 131° |
| 2026-04-26 11:36 | 20.51346 | 89.78009 | 34778 ft | 526 kts | 131° |
| 2026-04-26 11:36 | 20.46948 | 89.84240 | 34782 ft | 525 kts | 131° |
| 2026-04-26 11:37 | 20.42548 | 89.90466 | 34784 ft | 525 kts | 131° |
| 2026-04-26 11:37 | 20.38179 | 89.96644 | 34786 ft | 524 kts | 131° |
| 2026-04-26 11:38 | 20.33785 | 90.02850 | 34786 ft | 524 kts | 131° |
| 2026-04-26 11:38 | 20.29393 | 90.09044 | 34788 ft | 523 kts | 131° |
| 2026-04-26 11:39 | 20.25001 | 90.15234 | 34783 ft | 523 kts | 131° |
| 2026-04-26 11:39 | 20.20607 | 90.21420 | 34774 ft | 523 kts | 131° |
| 2026-04-26 11:40 | 20.16239 | 90.27562 | 34783 ft | 523 kts | 131° |
| 2026-04-26 11:40 | 20.11842 | 90.33739 | 34791 ft | 523 kts | 131° |
| 2026-04-26 11:42 | 19.94237 | 90.58406 | 34800 ft | 523 kts | 131° |
| 2026-04-26 11:43 | 19.89831 | 90.64563 | 34798 ft | 523 kts | 131° |
| 2026-04-26 11:43 | 19.85422 | 90.70718 | 34799 ft | 523 kts | 131° |
| 2026-04-26 11:44 | 19.81010 | 90.76870 | 34801 ft | 523 kts | 131° |
| 2026-04-26 11:44 | 19.76601 | 90.83013 | 34798 ft | 523 kts | 131° |
| 2026-04-26 11:45 | 19.72218 | 90.89113 | 34804 ft | 523 kts | 131° |
| 2026-04-26 11:45 | 19.67810 | 90.95240 | 34802 ft | 522 kts | 131° |
| 2026-04-26 11:46 | 19.63395 | 91.01372 | 34803 ft | 522 kts | 131° |
| 2026-04-26 11:46 | 19.58986 | 91.07490 | 34809 ft | 522 kts | 131° |
| 2026-04-26 11:47 | 19.54572 | 91.13609 | 34811 ft | 522 kts | 131° |
| 2026-04-26 11:47 | 19.50158 | 91.19720 | 34811 ft | 522 kts | 131° |
| 2026-04-26 11:48 | 19.45747 | 91.25822 | 34811 ft | 521 kts | 131° |
| 2026-04-26 11:48 | 19.41335 | 91.31919 | 34812 ft | 521 kts | 131° |
| 2026-04-26 11:49 | 19.36927 | 91.38004 | 34812 ft | 521 kts | 131° |
| 2026-04-26 11:49 | 19.32517 | 91.44086 | 34817 ft | 520 kts | 131° |
| 2026-04-26 11:50 | 19.28854 | 91.49133 | 34818 ft | 520 kts | 131° |
| 2026-04-26 11:50 | 19.24447 | 91.55199 | 34818 ft | 520 kts | 131° |
| 2026-04-26 11:51 | 19.20039 | 91.61261 | 34818 ft | 519 kts | 131° |
| 2026-04-26 11:51 | 19.15639 | 91.67306 | 34817 ft | 519 kts | 131° |
| 2026-04-26 11:52 | 19.11231 | 91.73357 | 34815 ft | 518 kts | 131° |
| 2026-04-26 11:52 | 19.06829 | 91.79392 | 34815 ft | 518 kts | 131° |
| 2026-04-26 11:53 | 19.02422 | 91.85430 | 34818 ft | 518 kts | 131° |
| 2026-04-26 11:54 | 18.95815 | 91.94471 | 34817 ft | 518 kts | 131° |
| 2026-04-26 11:54 | 18.91408 | 92.00496 | 34814 ft | 518 kts | 131° |
| 2026-04-26 11:55 | 18.86946 | 92.06484 | 34819 ft | 518 kts | 132° |
| 2026-04-26 11:55 | 18.82477 | 92.12449 | 34820 ft | 518 kts | 131° |
| 2026-04-26 11:56 | 18.78006 | 92.18431 | 34824 ft | 519 kts | 131° |
| 2026-04-26 11:56 | 18.73541 | 92.24404 | 34820 ft | 518 kts | 131° |
| 2026-04-26 11:57 | 18.69071 | 92.30377 | 34825 ft | 518 kts | 131° |
| 2026-04-26 11:57 | 18.64606 | 92.36337 | 34828 ft | 518 kts | 131° |
| 2026-04-26 11:58 | 18.60141 | 92.42291 | 34830 ft | 517 kts | 132° |
| 2026-04-26 11:58 | 18.55676 | 92.48239 | 34831 ft | 517 kts | 132° |
| 2026-04-26 11:59 | 18.51207 | 92.54187 | 34829 ft | 516 kts | 132° |
| 2026-04-26 11:59 | 18.46747 | 92.60118 | 34828 ft | 516 kts | 132° |
| 2026-04-26 12:00 | 18.42294 | 92.66033 | 34829 ft | 515 kts | 132° |
| 2026-04-26 12:00 | 18.37837 | 92.71948 | 34827 ft | 515 kts | 132° |
| 2026-04-26 12:01 | 18.33385 | 92.77851 | 34827 ft | 515 kts | 131° |
| 2026-04-26 12:01 | 18.28932 | 92.83750 | 34822 ft | 514 kts | 131° |
| 2026-04-26 12:02 | 18.24479 | 92.89645 | 34817 ft | 514 kts | 131° |
| 2026-04-26 12:02 | 18.20055 | 92.95494 | 34826 ft | 514 kts | 131° |
| 2026-04-26 12:03 | 18.15598 | 93.01382 | 34823 ft | 514 kts | 131° |
| 2026-04-26 12:03 | 18.11146 | 93.07258 | 34821 ft | 514 kts | 131° |
| 2026-04-26 12:04 | 18.06685 | 93.13141 | 34819 ft | 514 kts | 131° |
| 2026-04-26 12:04 | 18.02224 | 93.19019 | 34838 ft | 514 kts | 131° |
| 2026-04-26 12:05 | 17.97761 | 93.24894 | 34835 ft | 514 kts | 131° |
| 2026-04-26 12:05 | 17.93297 | 93.30764 | 34815 ft | 514 kts | 131° |
| 2026-04-26 12:06 | 17.88836 | 93.36626 | 34819 ft | 514 kts | 131° |
| 2026-04-26 12:06 | 17.84365 | 93.42496 | 34839 ft | 514 kts | 131° |
| 2026-04-26 12:07 | 17.79897 | 93.48356 | 34834 ft | 514 kts | 131° |
| 2026-04-26 12:07 | 17.75425 | 93.54217 | 34815 ft | 515 kts | 131° |
| 2026-04-26 12:08 | 17.70953 | 93.60072 | 34831 ft | 515 kts | 131° |
| 2026-04-26 12:08 | 17.66475 | 93.65929 | 34829 ft | 515 kts | 131° |
| 2026-04-26 12:09 | 17.61988 | 93.71794 | 34830 ft | 515 kts | 131° |
| 2026-04-26 12:09 | 17.57536 | 93.77607 | 34834 ft | 515 kts | 131° |
| 2026-04-26 12:10 | 17.53052 | 93.83458 | 34828 ft | 515 kts | 131° |
| 2026-04-26 12:10 | 17.48565 | 93.89307 | 34832 ft | 514 kts | 131° |
| 2026-04-26 12:11 | 17.44082 | 93.95146 | 34834 ft | 514 kts | 131° |
| 2026-04-26 12:11 | 17.39599 | 94.00980 | 34834 ft | 514 kts | 131° |
| 2026-04-26 12:12 | 17.35115 | 94.06808 | 34830 ft | 513 kts | 131° |
| 2026-04-26 12:12 | 17.30640 | 94.12622 | 34829 ft | 513 kts | 131° |
| 2026-04-26 12:13 | 17.26162 | 94.18433 | 34832 ft | 513 kts | 131° |
| 2026-04-26 12:13 | 17.21683 | 94.24242 | 34833 ft | 513 kts | 131° |
| 2026-04-26 12:14 | 17.17203 | 94.30047 | 34837 ft | 512 kts | 131° |
| 2026-04-26 12:14 | 17.12718 | 94.35853 | 34835 ft | 512 kts | 131° |
| 2026-04-26 12:15 | 17.08243 | 94.41642 | 34836 ft | 512 kts | 131° |
| 2026-04-26 12:15 | 17.03772 | 94.47420 | 34835 ft | 512 kts | 131° |
| 2026-04-26 12:16 | 16.99293 | 94.53203 | 34837 ft | 511 kts | 131° |
| 2026-04-26 12:16 | 16.94823 | 94.58970 | 34836 ft | 511 kts | 131° |
| 2026-04-26 12:17 | 16.90351 | 94.64735 | 34829 ft | 510 kts | 131° |
| 2026-04-26 12:17 | 16.85883 | 94.70492 | 34829 ft | 510 kts | 131° |
| 2026-04-26 12:18 | 16.81529 | 94.76238 | 34826 ft | 511 kts | 126° |
| 2026-04-26 12:18 | 16.78045 | 94.82685 | 34430 ft | 509 kts | 117° |
| 2026-04-26 12:18 | 16.76459 | 94.85989 | 33844 ft | 508 kts | 117° |
| 2026-04-26 12:19 | 16.74893 | 94.89236 | 33051 ft | 509 kts | 117° |
| 2026-04-26 12:19 | 16.73297 | 94.92533 | 32148 ft | 509 kts | 117° |
| 2026-04-26 12:19 | 16.71695 | 94.95832 | 31187 ft | 511 kts | 117° |
| 2026-04-26 12:19 | 16.70086 | 94.99142 | 30433 ft | 509 kts | 117° |
| 2026-04-26 12:20 | 16.68493 | 95.02417 | 30003 ft | 503 kts | 117° |
| 2026-04-26 12:20 | 16.66919 | 95.05650 | 29853 ft | 500 kts | 117° |
| 2026-04-26 12:20 | 16.65336 | 95.08897 | 29820 ft | 506 kts | 117° |
| 2026-04-26 12:21 | 16.62147 | 95.15437 | 29819 ft | 504 kts | 117° |
| 2026-04-26 12:21 | 16.58964 | 95.21956 | 29817 ft | 505 kts | 117° |
| 2026-04-26 12:22 | 16.55774 | 95.28486 | 29820 ft | 505 kts | 117° |
| 2026-04-26 12:22 | 16.52585 | 95.35007 | 29820 ft | 505 kts | 117° |
| 2026-04-26 12:23 | 16.49396 | 95.41522 | 29816 ft | 505 kts | 117° |
| 2026-04-26 12:23 | 16.46221 | 95.48003 | 29822 ft | 505 kts | 117° |
| 2026-04-26 12:24 | 16.43028 | 95.54512 | 29824 ft | 505 kts | 117° |
| 2026-04-26 12:24 | 16.39829 | 95.61030 | 29825 ft | 505 kts | 117° |
| 2026-04-26 12:25 | 16.35029 | 95.70794 | 29828 ft | 505 kts | 117° |
| 2026-04-26 12:25 | 16.31825 | 95.77307 | 29831 ft | 505 kts | 117° |
| 2026-04-26 12:26 | 16.28620 | 95.83813 | 29832 ft | 505 kts | 117° |
| 2026-04-26 12:26 | 16.25414 | 95.90315 | 29830 ft | 505 kts | 117° |
| 2026-04-26 12:27 | 16.22204 | 95.96820 | 29830 ft | 505 kts | 117° |
| 2026-04-26 12:27 | 16.18995 | 96.03316 | 29832 ft | 505 kts | 117° |
| 2026-04-26 12:28 | 16.15782 | 96.09815 | 29835 ft | 505 kts | 117° |
| 2026-04-26 12:28 | 16.12564 | 96.16316 | 29837 ft | 505 kts | 117° |
| 2026-04-26 12:29 | 16.09349 | 96.22806 | 29835 ft | 505 kts | 117° |
| 2026-04-26 12:30 | 16.04519 | 96.32545 | 29837 ft | 505 kts | 117° |
| 2026-04-26 12:30 | 16.01314 | 96.39000 | 29841 ft | 505 kts | 117° |
| 2026-04-26 12:31 | 15.96479 | 96.48728 | 29837 ft | 505 kts | 117° |
| 2026-04-26 12:31 | 15.93252 | 96.55210 | 29840 ft | 505 kts | 117° |
| 2026-04-26 12:32 | 15.90022 | 96.61695 | 29838 ft | 505 kts | 117° |
| 2026-04-26 12:33 | 15.85173 | 96.71418 | 29842 ft | 505 kts | 117° |
| 2026-04-26 12:33 | 15.81940 | 96.77894 | 29841 ft | 505 kts | 117° |
| 2026-04-26 12:34 | 15.78707 | 96.84364 | 29842 ft | 505 kts | 117° |
| 2026-04-26 12:34 | 15.75470 | 96.90835 | 29844 ft | 505 kts | 117° |
| 2026-04-26 12:35 | 15.72233 | 96.97301 | 29844 ft | 505 kts | 117° |
| 2026-04-26 12:35 | 15.69012 | 97.03728 | 29841 ft | 505 kts | 117° |
| 2026-04-26 12:36 | 15.65770 | 97.10192 | 29839 ft | 505 kts | 117° |
| 2026-04-26 12:36 | 15.63074 | 97.15563 | 29838 ft | 505 kts | 117° |
| 2026-04-26 12:37 | 15.59828 | 97.22026 | 29839 ft | 505 kts | 117° |
| 2026-04-26 12:37 | 15.56580 | 97.28486 | 29833 ft | 505 kts | 117° |
| 2026-04-26 12:38 | 15.53329 | 97.34945 | 29836 ft | 505 kts | 117° |
| 2026-04-26 12:38 | 15.50079 | 97.41397 | 29838 ft | 505 kts | 117° |
| 2026-04-26 12:39 | 15.46829 | 97.47844 | 29838 ft | 505 kts | 117° |
| 2026-04-26 12:39 | 15.43575 | 97.54293 | 29838 ft | 505 kts | 117° |
| 2026-04-26 12:40 | 15.40319 | 97.60738 | 29836 ft | 505 kts | 117° |
| 2026-04-26 12:40 | 15.37062 | 97.67182 | 29824 ft | 505 kts | 117° |
| 2026-04-26 12:40 | 15.35431 | 97.70407 | 29610 ft | 504 kts | 117° |
| 2026-04-26 12:41 | 15.33809 | 97.73611 | 29346 ft | 501 kts | 117° |
| 2026-04-26 12:41 | 15.32199 | 97.76791 | 29076 ft | 497 kts | 117° |
| 2026-04-26 12:41 | 15.30592 | 97.79964 | 28825 ft | 495 kts | 117° |
| 2026-04-26 12:41 | 15.29013 | 97.83080 | 28582 ft | 493 kts | 117° |
| 2026-04-26 12:42 | 15.27422 | 97.86218 | 28323 ft | 491 kts | 117° |
| 2026-04-26 12:42 | 15.25837 | 97.89344 | 28066 ft | 489 kts | 117° |
| 2026-04-26 12:42 | 15.24260 | 97.92453 | 27822 ft | 486 kts | 117° |
| 2026-04-26 12:42 | 15.22692 | 97.95543 | 27579 ft | 484 kts | 117° |
| 2026-04-26 12:43 | 15.21126 | 97.98627 | 27325 ft | 482 kts | 117° |
| 2026-04-26 12:43 | 15.19569 | 98.01692 | 27076 ft | 480 kts | 117° |
| 2026-04-26 12:43 | 15.18018 | 98.04745 | 26843 ft | 478 kts | 117° |
| 2026-04-26 12:43 | 15.16473 | 98.07783 | 26612 ft | 476 kts | 117° |
| 2026-04-26 12:44 | 15.14937 | 98.10804 | 26374 ft | 474 kts | 117° |
| 2026-04-26 12:44 | 15.13404 | 98.13817 | 26140 ft | 471 kts | 117° |
| 2026-04-26 12:44 | 15.11880 | 98.16813 | 25909 ft | 469 kts | 117° |
| 2026-04-26 12:44 | 15.10362 | 98.19795 | 25678 ft | 467 kts | 117° |
| 2026-04-26 12:45 | 15.08853 | 98.22768 | 25448 ft | 465 kts | 117° |
| 2026-04-26 12:45 | 15.07372 | 98.25740 | 25220 ft | 463 kts | 116° |
| 2026-04-26 12:45 | 15.05908 | 98.28697 | 24998 ft | 461 kts | 116° |
| 2026-04-26 12:45 | 15.04447 | 98.31649 | 24768 ft | 459 kts | 116° |
| 2026-04-26 12:46 | 15.03010 | 98.34546 | 24557 ft | 457 kts | 116° |
| 2026-04-26 12:46 | 15.01557 | 98.37469 | 24336 ft | 455 kts | 116° |
| 2026-04-26 12:46 | 15.00112 | 98.40372 | 24114 ft | 454 kts | 116° |
| 2026-04-26 12:46 | 14.98668 | 98.43271 | 23903 ft | 452 kts | 116° |
| 2026-04-26 12:47 | 14.97234 | 98.46148 | 23694 ft | 449 kts | 116° |
| 2026-04-26 12:47 | 14.95805 | 98.49016 | 23477 ft | 447 kts | 116° |
| 2026-04-26 12:47 | 14.94381 | 98.51873 | 23220 ft | 446 kts | 116° |
| 2026-04-26 12:47 | 14.92965 | 98.54712 | 22970 ft | 444 kts | 116° |
| 2026-04-26 12:48 | 14.91549 | 98.57548 | 22711 ft | 442 kts | 117° |
| 2026-04-26 12:48 | 14.90142 | 98.60367 | 22454 ft | 440 kts | 117° |
| 2026-04-26 12:48 | 14.88742 | 98.63169 | 22192 ft | 438 kts | 117° |
| 2026-04-26 12:48 | 14.87344 | 98.65968 | 21956 ft | 436 kts | 117° |
| 2026-04-26 12:49 | 14.85957 | 98.68742 | 21714 ft | 435 kts | 117° |
| 2026-04-26 12:49 | 14.84569 | 98.71519 | 21467 ft | 433 kts | 117° |
| 2026-04-26 12:49 | 14.83187 | 98.74281 | 21221 ft | 432 kts | 117° |
| 2026-04-26 12:49 | 14.81809 | 98.77036 | 20980 ft | 431 kts | 117° |
| 2026-04-26 12:50 | 14.80436 | 98.79780 | 20738 ft | 429 kts | 117° |
| 2026-04-26 12:50 | 14.79065 | 98.82516 | 20504 ft | 428 kts | 117° |
| 2026-04-26 12:50 | 14.77695 | 98.85252 | 20272 ft | 428 kts | 117° |
| 2026-04-26 12:50 | 14.76348 | 98.87939 | 20043 ft | 427 kts | 117° |
| 2026-04-26 12:51 | 14.74985 | 98.90658 | 19811 ft | 425 kts | 117° |
| 2026-04-26 12:51 | 14.73630 | 98.93361 | 19580 ft | 423 kts | 117° |
| 2026-04-26 12:51 | 14.72281 | 98.96050 | 19351 ft | 421 kts | 117° |
| 2026-04-26 12:51 | 14.70940 | 98.98723 | 19125 ft | 418 kts | 117° |
| 2026-04-26 12:52 | 14.69604 | 99.01385 | 18892 ft | 417 kts | 117° |
| 2026-04-26 12:52 | 14.68269 | 99.04044 | 18693 ft | 415 kts | 117° |
| 2026-04-26 12:52 | 14.66943 | 99.06683 | 18459 ft | 413 kts | 117° |
| 2026-04-26 12:52 | 14.65621 | 99.09314 | 18236 ft | 412 kts | 117° |
| 2026-04-26 12:53 | 14.64305 | 99.11931 | 17993 ft | 410 kts | 117° |
| 2026-04-26 12:53 | 14.62997 | 99.14533 | 17882 ft | 407 kts | 117° |
| 2026-04-26 12:53 | 14.61690 | 99.17132 | 17870 ft | 408 kts | 117° |
| 2026-04-26 12:53 | 14.60379 | 99.19736 | 17868 ft | 409 kts | 117° |
| 2026-04-26 12:54 | 14.59071 | 99.22336 | 17870 ft | 408 kts | 117° |
| 2026-04-26 12:54 | 14.57761 | 99.24938 | 17865 ft | 409 kts | 117° |
| 2026-04-26 12:54 | 14.56445 | 99.27550 | 17865 ft | 409 kts | 117° |
| 2026-04-26 12:54 | 14.55141 | 99.30139 | 17858 ft | 408 kts | 117° |
| 2026-04-26 12:55 | 14.53825 | 99.32749 | 17856 ft | 409 kts | 117° |
| 2026-04-26 12:55 | 14.52513 | 99.35350 | 17857 ft | 408 kts | 117° |
| 2026-04-26 12:55 | 14.51202 | 99.37949 | 17853 ft | 409 kts | 117° |
| 2026-04-26 12:55 | 14.49888 | 99.40553 | 17853 ft | 409 kts | 117° |
| 2026-04-26 12:56 | 14.48573 | 99.43158 | 17847 ft | 409 kts | 117° |
| 2026-04-26 12:56 | 14.47260 | 99.45759 | 17849 ft | 409 kts | 117° |
| 2026-04-26 12:56 | 14.45947 | 99.48358 | 17846 ft | 409 kts | 117° |
| 2026-04-26 12:56 | 14.44730 | 99.51011 | 17844 ft | 409 kts | 111° |
| 2026-04-26 12:57 | 14.43930 | 99.53794 | 17842 ft | 409 kts | 101° |
| 2026-04-26 12:57 | 14.43619 | 99.55905 | 17844 ft | 408 kts | 95° |
| 2026-04-26 12:57 | 14.43461 | 99.58797 | 17837 ft | 408 kts | 92° |
| 2026-04-26 12:58 | 14.43125 | 99.64644 | 17556 ft | 408 kts | 93° |
| 2026-04-26 12:58 | 14.42941 | 99.67556 | 17298 ft | 405 kts | 93° |
| 2026-04-26 12:58 | 14.42756 | 99.70450 | 17049 ft | 403 kts | 93° |
| 2026-04-26 12:58 | 14.42572 | 99.73329 | 16801 ft | 402 kts | 93° |
| 2026-04-26 12:59 | 14.42389 | 99.76197 | 16554 ft | 399 kts | 93° |
| 2026-04-26 12:59 | 14.42207 | 99.79052 | 16309 ft | 397 kts | 93° |
| 2026-04-26 12:59 | 14.42026 | 99.81896 | 16063 ft | 397 kts | 93° |
| 2026-04-26 12:59 | 14.41846 | 99.84724 | 15811 ft | 395 kts | 93° |
| 2026-04-26 13:00 | 14.41666 | 99.87542 | 15597 ft | 393 kts | 93° |
| 2026-04-26 13:00 | 14.41486 | 99.90354 | 15350 ft | 392 kts | 93° |
| 2026-04-26 13:00 | 14.41306 | 99.93149 | 15118 ft | 390 kts | 93° |
| 2026-04-26 13:00 | 14.41127 | 99.95942 | 14888 ft | 389 kts | 93° |
| 2026-04-26 13:01 | 14.40947 | 99.98723 | 14656 ft | 388 kts | 93° |
| 2026-04-26 13:01 | 14.40769 | 100.01485 | 14443 ft | 384 kts | 94° |
| 2026-04-26 13:01 | 14.40594 | 100.04194 | 14344 ft | 372 kts | 94° |
| 2026-04-26 13:01 | 14.40287 | 100.06798 | 14043 ft | 361 kts | 101° |
| 2026-04-26 13:02 | 14.39672 | 100.09267 | 13881 ft | 352 kts | 105° |
| 2026-04-26 13:02 | 14.39035 | 100.11730 | 13834 ft | 358 kts | 105° |
| 2026-04-26 13:02 | 14.38407 | 100.14219 | 13827 ft | 358 kts | 104° |
| 2026-04-26 13:02 | 14.37786 | 100.16703 | 13822 ft | 358 kts | 104° |
| 2026-04-26 13:03 | 14.37166 | 100.19189 | 13825 ft | 358 kts | 104° |
| 2026-04-26 13:03 | 14.36546 | 100.21674 | 13825 ft | 358 kts | 104° |
| 2026-04-26 13:03 | 14.35923 | 100.24167 | 13830 ft | 358 kts | 104° |
| 2026-04-26 13:03 | 14.35301 | 100.26653 | 13825 ft | 358 kts | 104° |
| 2026-04-26 13:04 | 14.34677 | 100.29143 | 13827 ft | 359 kts | 104° |
| 2026-04-26 13:04 | 14.34053 | 100.31635 | 13742 ft | 358 kts | 104° |
| 2026-04-26 13:04 | 14.33431 | 100.34118 | 13617 ft | 356 kts | 104° |
| 2026-04-26 13:04 | 14.32827 | 100.36528 | 13533 ft | 346 kts | 104° |
| 2026-04-26 13:05 | 14.32228 | 100.38916 | 13417 ft | 332 kts | 104° |
| 2026-04-26 13:05 | 14.31666 | 100.41153 | 13098 ft | 322 kts | 104° |
| 2026-04-26 13:05 | 14.31118 | 100.43338 | 12883 ft | 309 kts | 104° |
| 2026-04-26 13:05 | 14.30569 | 100.45521 | 12755 ft | 314 kts | 104° |
| 2026-04-26 13:06 | 14.30025 | 100.47686 | 12636 ft | 317 kts | 104° |
| 2026-04-26 13:06 | 14.29467 | 100.49907 | 12504 ft | 315 kts | 104° |
| 2026-04-26 13:06 | 14.28917 | 100.52094 | 12384 ft | 315 kts | 104° |
| 2026-04-26 13:06 | 14.28367 | 100.54280 | 12259 ft | 314 kts | 104° |
| 2026-04-26 13:07 | 14.27820 | 100.56453 | 12105 ft | 314 kts | 104° |
| 2026-04-26 13:07 | 14.27272 | 100.58634 | 11853 ft | 313 kts | 105° |
| 2026-04-26 13:07 | 14.26728 | 100.60796 | 11616 ft | 311 kts | 105° |
| 2026-04-26 13:07 | 14.26158 | 100.62943 | 11359 ft | 309 kts | 110° |
| 2026-04-26 13:08 | 14.25074 | 100.64832 | 11115 ft | 307 kts | 133° |
| 2026-04-26 13:08 | 14.23381 | 100.66132 | 10908 ft | 304 kts | 156° |
| 2026-04-26 13:08 | 14.21348 | 100.66628 | 10752 ft | 301 kts | 180° |
| 2026-04-26 13:08 | 14.19300 | 100.66288 | 10604 ft | 298 kts | 199° |
| 2026-04-26 13:09 | 14.17360 | 100.65546 | 10438 ft | 297 kts | 203° |
| 2026-04-26 13:09 | 14.15432 | 100.64778 | 10278 ft | 296 kts | 201° |
| 2026-04-26 13:09 | 14.13484 | 100.64098 | 10112 ft | 296 kts | 199° |
| 2026-04-26 13:09 | 14.11510 | 100.63501 | 9951 ft | 296 kts | 197° |
| 2026-04-26 13:10 | 14.09522 | 100.62957 | 9785 ft | 295 kts | 195° |
| 2026-04-26 13:10 | 14.07533 | 100.62436 | 9620 ft | 295 kts | 195° |
| 2026-04-26 13:10 | 14.05565 | 100.61928 | 9512 ft | 287 kts | 195° |
| 2026-04-26 13:10 | 14.03678 | 100.61440 | 9405 ft | 272 kts | 195° |
| 2026-04-26 13:11 | 14.01871 | 100.61054 | 9088 ft | 262 kts | 184° |
| 2026-04-26 13:11 | 14.00115 | 100.61366 | 8807 ft | 255 kts | 157° |
| 2026-04-26 13:11 | 13.98700 | 100.62450 | 8678 ft | 262 kts | 131° |
| 2026-04-26 13:11 | 13.97837 | 100.64121 | 8454 ft | 264 kts | 107° |
| 2026-04-26 13:12 | 13.97464 | 100.65940 | 8149 ft | 261 kts | 99° |
| 2026-04-26 13:12 | 13.97198 | 100.67784 | 7856 ft | 260 kts | 99° |
| 2026-04-26 13:12 | 13.97006 | 100.69625 | 7552 ft | 259 kts | 86° |
| 2026-04-26 13:12 | 13.97512 | 100.71386 | 7268 ft | 260 kts | 59° |
| 2026-04-26 13:13 | 13.98741 | 100.72722 | 6978 ft | 258 kts | 31° |
| 2026-04-26 13:13 | 14.00396 | 100.73380 | 6691 ft | 256 kts | 12° |
| 2026-04-26 13:13 | 14.02144 | 100.73717 | 6398 ft | 255 kts | 7° |
| 2026-04-26 13:13 | 14.03889 | 100.74019 | 6101 ft | 253 kts | 8° |
| 2026-04-26 13:14 | 14.05624 | 100.74134 | 5962 ft | 251 kts | 347° |
| 2026-04-26 13:14 | 14.07365 | 100.73676 | 5869 ft | 275 kts | 351° |
| 2026-04-26 13:14 | 14.09318 | 100.73799 | 5760 ft | 286 kts | 14° |
| 2026-04-26 13:14 | 14.11091 | 100.74708 | 5651 ft | 286 kts | 38° |
| 2026-04-26 13:15 | 14.12373 | 100.76260 | 5478 ft | 286 kts | 62° |
| 2026-04-26 13:15 | 14.12964 | 100.78207 | 5143 ft | 283 kts | 86° |
| 2026-04-26 13:15 | 14.12742 | 100.80166 | 4795 ft | 275 kts | 110° |
| 2026-04-26 13:15 | 14.12169 | 100.81314 | 4565 ft | 271 kts | 127° |
| 2026-04-26 13:16 | 14.10202 | 100.82847 | 4071 ft | 266 kts | 161° |
| 2026-04-26 13:16 | 14.08387 | 100.83058 | 3718 ft | 264 kts | 187° |
| 2026-04-26 13:16 | 14.06642 | 100.82507 | 3373 ft | 263 kts | 201° |
| 2026-04-26 13:16 | 14.04923 | 100.81899 | 3170 ft | 262 kts | 195° |
| 2026-04-26 13:17 | 14.01314 | 100.81549 | 2759 ft | 261 kts | 177° |
| 2026-04-26 13:17 | 13.99501 | 100.81693 | 2643 ft | 260 kts | 174° |
| 2026-04-26 13:18 | 13.96512 | 100.82072 | 2500 ft | 261 kts | 172° |
| 2026-04-26 13:18 | 13.94121 | 100.82362 | 2469 ft | 254 kts | 176° |
| 2026-04-26 13:18 | 13.91324 | 100.81958 | 2298 ft | 232 kts | 194° |
| 2026-04-26 13:19 | 13.89831 | 100.81533 | 2173 ft | 211 kts | 194° |
| 2026-04-26 13:19 | 13.88478 | 100.81189 | 2018 ft | 191 kts | 192° |
| 2026-04-26 13:19 | 13.87276 | 100.80885 | 2002 ft | 170 kts | 193° |
| 2026-04-26 13:19 | 13.86173 | 100.80592 | 2003 ft | 160 kts | 192° |
| 2026-04-26 13:20 | 13.85097 | 100.80310 | 2002 ft | 158 kts | 193° |
| 2026-04-26 13:20 | 13.84023 | 100.80026 | 2005 ft | 159 kts | 192° |
| 2026-04-26 13:20 | 13.82952 | 100.79744 | 1961 ft | 157 kts | 192° |
| 2026-04-26 13:20 | 13.81907 | 100.79469 | 1744 ft | 153 kts | 192° |
| 2026-04-26 13:21 | 13.80875 | 100.79198 | 1379 ft | 154 kts | 192° |
| 2026-04-26 13:21 | 13.79839 | 100.78926 | 1096 ft | 149 kts | 193° |
| 2026-04-26 13:21 | 13.78875 | 100.78667 | 998 ft | 142 kts | 193° |
| 2026-04-26 13:21 | 13.77910 | 100.78407 | 979 ft | 145 kts | 193° |
| 2026-04-26 13:22 | 13.76950 | 100.78153 | 793 ft | 140 kts | 193° |
| 2026-04-26 13:22 | 13.76004 | 100.77896 | 642 ft | 138 kts | 194° |
| 2026-04-26 13:22 | 13.75052 | 100.77622 | 622 ft | 145 kts | 194° |
| 2026-04-26 13:22 | 13.74095 | 100.77367 | 565 ft | 143 kts | 193° |
| 2026-04-26 13:23 | 13.73145 | 100.77122 | 468 ft | 142 kts | 192° |
| 2026-04-26 13:23 | 13.72181 | 100.76881 | 395 ft | 141 kts | 193° |
| 2026-04-26 13:23 | 13.71251 | 100.76632 | 311 ft | 139 kts | 194° |
| 2026-04-26 13:23 | 13.70302 | 100.76402 | 173 ft | 136 kts | 192° |
| 2026-04-26 13:24 | 13.69368 | 100.76155 | 67 ft | 143 kts | 193° |
| 2026-04-26 13:24 | 13.68449 | 100.75916 | 21 ft | 121 kts | 194° |
| 2026-04-26 13:24 | 13.67803 | 100.75749 | 17 ft | 73 kts | 195° |
| 2026-04-26 13:24 | 13.67432 | 100.75642 | 19 ft | 45 kts | 192° |
| 2026-04-26 13:25 | 13.67186 | 100.75533 | 19 ft | 30 kts | 217° |
| 2026-04-26 13:25 | 13.67107 | 100.75459 | 19 ft | 0 kts | 226° |
| 2026-04-26 13:27 | 13.67094 | 100.75439 | 19 ft | 8 kts | 237° |
| 2026-04-26 13:28 | 13.67116 | 100.75385 | 20 ft | 9 kts | 335° |
| 2026-04-26 13:28 | 13.67209 | 100.75397 | 19 ft | 18 kts | 14° |
| 2026-04-26 13:28 | 13.67361 | 100.75437 | 19 ft | 27 kts | 14° |
| 2026-04-26 13:28 | 13.67567 | 100.75491 | 19 ft | 34 kts | 13° |
| 2026-04-26 13:29 | 13.67818 | 100.75556 | 19 ft | 40 kts | 15° |
| 2026-04-26 13:29 | 13.68011 | 100.75608 | 19 ft | 44 kts | 14° |
| 2026-04-26 13:29 | 13.68418 | 100.75717 | 19 ft | 43 kts | 15° |
| 2026-04-26 13:29 | 13.68628 | 100.75772 | 22 ft | 33 kts | 14° |
| 2026-04-26 13:30 | 13.68789 | 100.75791 | 20 ft | 12 kts | 328° |
| 2026-04-26 13:30 | 13.68826 | 100.75686 | 19 ft | 20 kts | 281° |
| 2026-04-26 13:30 | 13.68854 | 100.75580 | 19 ft | 7 kts | 283° |
| 2026-04-26 13:30 | 13.68819 | 100.75519 | 19 ft | 13 kts | 212° |
| 2026-04-26 13:31 | 13.68795 | 100.75513 | 19 ft | 0 kts | 193° |
| 2026-04-26 13:31 | 13.68775 | 100.75505 | 19 ft | 7 kts | 205° |
| 2026-04-26 13:32 | 13.68759 | 100.75463 | 19 ft | 6 kts | 274° |
| 2026-04-26 13:32 | 13.68769 | 100.75423 | 19 ft | 4 kts | 284° |
| 2026-04-26 13:32 | 13.68775 | 100.75401 | 19 ft | 0 kts | 285° |
| 2026-04-26 13:32 | 13.68776 | 100.75401 | 19 ft | 0 kts | 285° |